Vuilleumier, Laurent (2008): Radiosonde measurements from station Payerne (2007-11) [dataset]. Swiss Meteorological Agency, Payerne, PANGAEA, https://doi.org/10.1594/PANGAEA.707724
Always quote citation above when using data! You can download the citation in several formats below.
Published: 2008-11-19 • DOI registered: 2008-12-17
Other version:
Vuilleumier, Laurent (2007): BSRN Station-to-archive file for station Payerne (2007-11) [dataset]. ftp://ftp.bsrn.awi.de/pay/pay1107.dat.gz
Project(s):
Coverage:
Latitude: 46.812300 * Longitude: 6.942200
Date/Time Start: 2007-11-01T00:00:00 * Date/Time End: 2007-11-30T12:00:00
Minimum ALTITUDE: 491 m * Maximum ALTITUDE: 34693 m
Event(s):
PAY (Payerne) * Latitude: 46.812300 * Longitude: 6.942200 * Date/Time: 1992-09-01T00:00:00 * Elevation: 491.0 m * Location: Switzerland * Method/Device: Monitoring station (MONS) * Comment: BSRN station no: 21; Surface type: cultivated; Topography type: hilly, rural; Horizon: doi:10.1594/PANGAEA.947035; Station scientist: Laurent Vuilleumier (laurent.vuilleumier@meteoswiss.ch)
Comment:
Location: Arosa, Switzerland; Distance from radiation site: 200 km
Parameter(s):
| # | Name | Short Name | Unit | Principal Investigator | Method/Device | Comment |
|---|---|---|---|---|---|---|
| 1 | DATE/TIME | Date/Time | Geocode | |||
| 2 | ALTITUDE | Altitude | m | Geocode | ||
| 3 | Pressure, at given altitude | PPPP | hPa | Vuilleumier, Laurent | Radiosonde, METEOLABOR AG, SRSCH | |
| 4 | Temperature, air | TTT | °C | Vuilleumier, Laurent | Radiosonde, METEOLABOR AG, SRSCH | |
| 5 | Dew/frost point | TdTdTd | °C | Vuilleumier, Laurent | Radiosonde, METEOLABOR AG, SRSCH | |
| 6 | Wind direction | dd | deg | Vuilleumier, Laurent | Radiosonde, METEOLABOR AG, SRSCH | |
| 7 | Wind speed | ff | m/s | Vuilleumier, Laurent | Radiosonde, METEOLABOR AG, SRSCH | |
| 8 | Ozone, partial pressure | pO3 | mPa | Vuilleumier, Laurent | Radiosonde, METEOLABOR AG, SRSCH |
License:
Size:
289741 data points
Data
| 1 Date/Time | 2 Altitude [m] | 3 PPPP [hPa] | 4 TTT [°C] | 5 TdTdTd [°C] | 6 dd [deg] | 7 ff [m/s] | 8 pO3 [mPa] |
|---|---|---|---|---|---|---|---|
| 2007-11-01T00:00 | 491 | 969 | 5.1 | 2.3 | 36 | 3 | |
| 2007-11-01T00:00 | 573 | 960 | 5.4 | 2.1 | |||
| 2007-11-01T00:00 | 622 | 954 | 5.3 | 1.7 | |||
| 2007-11-01T00:00 | 638 | 952 | 5.2 | 1.5 | |||
| 2007-11-01T00:00 | 700 | 945 | 5.0 | 1.4 | |||
| 2007-11-01T00:00 | 719 | 943 | 4.9 | 1.4 | |||
| 2007-11-01T00:00 | 725 | 942 | 4.8 | 1.4 | |||
| 2007-11-01T00:00 | 736 | 941 | 4.7 | 1.4 | 64 | 6 | |
| 2007-11-01T00:00 | 759 | 938 | 4.6 | 1.4 | |||
| 2007-11-01T00:00 | 773 | 936 | 4.4 | 1.4 | |||
| 2007-11-01T00:00 | 778 | 936 | 4.3 | 1.4 | |||
| 2007-11-01T00:00 | 788 | 935 | 4.3 | 1.5 | 59 | 9 | |
| 2007-11-01T00:00 | 804 | 933 | 4.3 | 1.6 | |||
| 2007-11-01T00:00 | 822 | 931 | 4.3 | 1.8 | |||
| 2007-11-01T00:00 | 827 | 930 | 4.3 | 1.8 | |||
| 2007-11-01T00:00 | 846 | 928 | 4.3 | 2.0 | 61 | 9 | |
| 2007-11-01T00:00 | 864 | 926 | 4.4 | 2.1 | |||
| 2007-11-01T00:00 | 874 | 925 | 4.4 | 2.1 | |||
| 2007-11-01T00:00 | 884 | 924 | 4.4 | 2.2 | |||
| 2007-11-01T00:00 | 891 | 923 | 4.5 | 2.3 | |||
| 2007-11-01T00:00 | 908 | 921 | 4.7 | 2.5 | 64 | 9 | |
| 2007-11-01T00:00 | 926 | 919 | 4.8 | 2.6 | |||
| 2007-11-01T00:00 | 936 | 918 | 4.8 | 2.5 | |||
| 2007-11-01T00:00 | 941 | 917 | 4.7 | 2.5 | |||
| 2007-11-01T00:00 | 964 | 915 | 4.7 | 2.2 | 66 | 9 | |
| 2007-11-01T00:00 | 975 | 914 | 4.6 | 2.2 | |||
| 2007-11-01T00:00 | 997 | 911 | 4.6 | 2.0 | |||
| 2007-11-01T00:00 | 1005 | 910 | 4.5 | 1.9 | |||
| 2007-11-01T00:00 | 1031 | 907 | 4.5 | 1.6 | 67 | 10 | |
| 2007-11-01T00:00 | 1045 | 906 | 4.4 | 1.5 | |||
| 2007-11-01T00:00 | 1056 | 904 | 4.3 | 1.3 | |||
| 2007-11-01T00:00 | 1062 | 904 | 4.3 | 1.2 | |||
| 2007-11-01T00:00 | 1093 | 900 | 4.2 | 1.0 | 68 | 10 | |
| 2007-11-01T00:00 | 1097 | 900 | 4.2 | 1.0 | |||
| 2007-11-01T00:00 | 1099 | 900 | 4.1 | 1.0 | |||
| 2007-11-01T00:00 | 1119 | 898 | 4.1 | 0.9 | |||
| 2007-11-01T00:00 | 1126 | 897 | 4.0 | 0.8 | |||
| 2007-11-01T00:00 | 1154 | 894 | 4.0 | 0.7 | 68 | 11 | |
| 2007-11-01T00:00 | 1160 | 893 | 4.0 | 0.7 | |||
| 2007-11-01T00:00 | 1174 | 892 | 4.0 | 0.7 | |||
| 2007-11-01T00:00 | 1178 | 891 | 4.0 | 0.7 | |||
| 2007-11-01T00:00 | 1205 | 888 | 3.8 | 0.3 | 68 | 11 | |
| 2007-11-01T00:00 | 1224 | 886 | 3.6 | 0.1 | |||
| 2007-11-01T00:00 | 1231 | 885 | 3.6 | 0.0 | |||
| 2007-11-01T00:00 | 1266 | 881 | 3.2 | -0.4 | 67 | 12 | |
| 2007-11-01T00:00 | 1282 | 880 | 3.0 | -0.6 | |||
| 2007-11-01T00:00 | 1288 | 879 | 3.0 | -0.6 | |||
| 2007-11-01T00:00 | 1314 | 876 | 2.7 | -0.8 | |||
| 2007-11-01T00:00 | 1319 | 876 | 2.8 | -0.8 | 67 | 13 | |
| 2007-11-01T00:00 | 1329 | 875 | 2.9 | -0.7 | |||
| 2007-11-01T00:00 | 1334 | 874 | 2.8 | -0.8 | |||
| 2007-11-01T00:00 | 1367 | 871 | 2.7 | -1.0 | |||
| 2007-11-01T00:00 | 1373 | 870 | 2.8 | -0.9 | 66 | 14 | |
| 2007-11-01T00:00 | 1385 | 869 | 3.0 | -0.9 | |||
| 2007-11-01T00:00 | 1391 | 868 | 2.9 | -0.9 | |||
| 2007-11-01T00:00 | 1425 | 864 | 3.0 | -1.4 | |||
| 2007-11-01T00:00 | 1431 | 864 | 3.0 | -1.5 | 66 | 15 | |
| 2007-11-01T00:00 | 1441 | 863 | 3.0 | -1.7 | |||
| 2007-11-01T00:00 | 1447 | 862 | 3.1 | -1.7 | |||
| 2007-11-01T00:00 | 1474 | 859 | 2.9 | -2.5 | |||
| 2007-11-01T00:00 | 1486 | 858 | 2.8 | -2.9 | 65 | 16 | |
| 2007-11-01T00:00 | 1492 | 857 | 2.8 | -3.0 | |||
| 2007-11-01T00:00 | 1498 | 857 | 2.8 | -3.2 | |||
| 2007-11-01T00:00 | 1534 | 853 | 2.7 | -4.2 | |||
| 2007-11-01T00:00 | 1547 | 851 | 2.7 | -4.5 | 65 | 17 | |
| 2007-11-01T00:00 | 1553 | 851 | 2.7 | -4.7 | |||
| 2007-11-01T00:00 | 1560 | 850 | 2.7 | -4.8 | |||
| 2007-11-01T00:00 | 1561 | 850 | 2.8 | -4.8 | |||
| 2007-11-01T00:00 | 1596 | 846 | 3.2 | -5.4 | |||
| 2007-11-01T00:00 | 1607 | 845 | 3.4 | -5.6 | 64 | 17 | |
| 2007-11-01T00:00 | 1612 | 845 | 3.5 | -5.6 | |||
| 2007-11-01T00:00 | 1618 | 844 | 3.5 | -5.9 | |||
| 2007-11-01T00:00 | 1649 | 841 | 4.3 | -6.3 | |||
| 2007-11-01T00:00 | 1659 | 840 | 4.6 | -6.5 | 63 | 18 | |
| 2007-11-01T00:00 | 1663 | 839 | 4.7 | -6.6 | |||
| 2007-11-01T00:00 | 1668 | 839 | 4.7 | -6.8 | |||
| 2007-11-01T00:00 | 1703 | 835 | 4.6 | -8.2 | |||
| 2007-11-01T00:00 | 1716 | 834 | 4.5 | -8.8 | 63 | 18 | |
| 2007-11-01T00:00 | 1722 | 833 | 4.4 | -9.1 | |||
| 2007-11-01T00:00 | 1766 | 829 | 4.8 | -10.3 | |||
| 2007-11-01T00:00 | 1778 | 828 | 5.4 | -10.3 | 63 | 17 | |
| 2007-11-01T00:00 | 1784 | 827 | 5.5 | -10.4 | |||
| 2007-11-01T00:00 | 1821 | 823 | 5.8 | -10.2 | |||
| 2007-11-01T00:00 | 1830 | 822 | 5.9 | -10.0 | 64 | 17 | |
| 2007-11-01T00:00 | 1835 | 822 | 5.9 | -10.0 | |||
| 2007-11-01T00:00 | 1864 | 819 | 6.1 | -9.7 | |||
| 2007-11-01T00:00 | 1882 | 817 | 6.4 | -9.5 | 65 | 17 | |
| 2007-11-01T00:00 | 1887 | 817 | 6.4 | -9.5 | |||
| 2007-11-01T00:00 | 1923 | 813 | 7.2 | -8.8 | |||
| 2007-11-01T00:00 | 1941 | 811 | 7.5 | -8.5 | 67 | 17 | |
| 2007-11-01T00:00 | 1947 | 811 | 7.5 | -8.5 | |||
| 2007-11-01T00:00 | 1982 | 807 | 7.6 | -8.4 | |||
| 2007-11-01T00:00 | 2000 | 805 | 7.5 | -8.4 | 68 | 17 | |
| 2007-11-01T00:00 | 2006 | 805 | 7.4 | -8.4 | |||
| 2007-11-01T00:00 | 2043 | 801 | 7.7 | -7.9 | |||
| 2007-11-01T00:00 | 2056 | 800 | 7.8 | -7.8 | |||
| 2007-11-01T00:00 | 2063 | 799 | 7.8 | -7.7 | 68 | 17 | |
| 2007-11-01T00:00 | 2070 | 799 | 7.8 | -7.7 | |||
| 2007-11-01T00:00 | 2106 | 795 | 7.6 | -7.8 | |||
| 2007-11-01T00:00 | 2122 | 794 | 7.6 | -7.9 | 69 | 17 | |
| 2007-11-01T00:00 | 2128 | 793 | 7.6 | -7.9 | |||
| 2007-11-01T00:00 | 2161 | 790 | 7.5 | -8.1 | |||
| 2007-11-01T00:00 | 2177 | 788 | 7.5 | -8.1 | 68 | 17 | |
| 2007-11-01T00:00 | 2183 | 788 | 7.4 | -8.1 | |||
| 2007-11-01T00:00 | 2215 | 785 | 7.2 | -8.3 | |||
| 2007-11-01T00:00 | 2225 | 784 | 7.1 | -8.4 | |||
| 2007-11-01T00:00 | 2231 | 783 | 7.0 | -8.4 | 68 | 17 | |
| 2007-11-01T00:00 | 2263 | 780 | 6.7 | -8.6 | |||
| 2007-11-01T00:00 | 2280 | 779 | 6.6 | -8.6 | |||
| 2007-11-01T00:00 | 2285 | 778 | 6.6 | -8.7 | 68 | 17 | |
| 2007-11-01T00:00 | 2315 | 775 | 6.3 | -8.8 | |||
| 2007-11-01T00:00 | 2327 | 774 | 6.2 | -8.9 | |||
| 2007-11-01T00:00 | 2330 | 774 | 6.2 | -8.9 | 68 | 17 | |
| 2007-11-01T00:00 | 2357 | 771 | 5.9 | -9.1 | |||
| 2007-11-01T00:00 | 2375 | 770 | 5.8 | -9.2 | |||
| 2007-11-01T00:00 | 2381 | 769 | 5.7 | -9.3 | 68 | 17 | |
| 2007-11-01T00:00 | 2414 | 766 | 5.5 | -9.4 | |||
| 2007-11-01T00:00 | 2428 | 765 | 5.4 | -9.5 | |||
| 2007-11-01T00:00 | 2433 | 764 | 5.3 | -9.6 | 68 | 17 | |
| 2007-11-01T00:00 | 2466 | 761 | 5.1 | -9.7 | |||
| 2007-11-01T00:00 | 2487 | 759 | 4.9 | -9.9 | |||
| 2007-11-01T00:00 | 2495 | 758 | 4.8 | -10.0 | 68 | 17 | |
| 2007-11-01T00:00 | 2532 | 755 | 4.5 | -10.0 | |||
| 2007-11-01T00:00 | 2548 | 753 | 4.5 | -10.0 | |||
| 2007-11-01T00:00 | 2553 | 753 | 4.4 | -10.0 | 68 | 18 | |
| 2007-11-01T00:00 | 2583 | 750 | 4.4 | -10.0 | |||
| 2007-11-01T00:00 | 2597 | 749 | 4.3 | -10.0 | |||
| 2007-11-01T00:00 | 2602 | 748 | 4.3 | -10.0 | 67 | 19 | |
| 2007-11-01T00:00 | 2628 | 746 | 4.2 | -9.9 | |||
| 2007-11-01T00:00 | 2640 | 745 | 4.1 | -9.9 | |||
| 2007-11-01T00:00 | 2644 | 745 | 4.1 | -10.0 | 67 | 19 | |
| 2007-11-01T00:00 | 2671 | 742 | 3.9 | -10.0 | |||
| 2007-11-01T00:00 | 2681 | 741 | 3.8 | -10.0 | |||
| 2007-11-01T00:00 | 2691 | 740 | 3.8 | -10.0 | 66 | 19 | |
| 2007-11-01T00:00 | 2719 | 738 | 4.0 | -9.7 | |||
| 2007-11-01T00:00 | 2728 | 737 | 4.1 | -9.7 | |||
| 2007-11-01T00:00 | 2732 | 737 | 4.0 | -9.7 | |||
| 2007-11-01T00:00 | 2737 | 736 | 4.0 | -9.7 | 66 | 18 | |
| 2007-11-01T00:00 | 2766 | 733 | 4.0 | -9.8 | |||
| 2007-11-01T00:00 | 2777 | 732 | 4.2 | -9.8 | |||
| 2007-11-01T00:00 | 2782 | 732 | 4.3 | -9.6 | |||
| 2007-11-01T00:00 | 2787 | 732 | 4.3 | -9.6 | 66 | 17 | |
| 2007-11-01T00:00 | 2813 | 729 | 4.5 | -9.5 | |||
| 2007-11-01T00:00 | 2828 | 728 | 4.5 | -9.5 | |||
| 2007-11-01T00:00 | 2833 | 727 | 4.4 | -9.6 | |||
| 2007-11-01T00:00 | 2837 | 727 | 4.4 | -9.6 | 66 | 16 | |
| 2007-11-01T00:00 | 2861 | 725 | 4.4 | -9.7 | |||
| 2007-11-01T00:00 | 2873 | 724 | 4.4 | -9.7 | |||
| 2007-11-01T00:00 | 2877 | 723 | 4.4 | -9.7 | |||
| 2007-11-01T00:00 | 2881 | 723 | 4.4 | -9.8 | 67 | 15 | |
| 2007-11-01T00:00 | 2901 | 721 | 4.5 | -9.9 | |||
| 2007-11-01T00:00 | 2912 | 720 | 4.4 | -10.0 | |||
| 2007-11-01T00:00 | 2916 | 720 | 4.5 | -10.0 | |||
| 2007-11-01T00:00 | 2921 | 720 | 4.5 | -10.0 | 69 | 14 | |
| 2007-11-01T00:00 | 2943 | 718 | 4.4 | -10.1 | |||
| 2007-11-01T00:00 | 2960 | 716 | 4.3 | -10.2 | |||
| 2007-11-01T00:00 | 2965 | 716 | 4.2 | -10.2 | |||
| 2007-11-01T00:00 | 2971 | 715 | 4.2 | -10.3 | 72 | 14 | |
| 2007-11-01T00:00 | 3002 | 712 | 4.1 | -10.4 | |||
| 2007-11-01T00:00 | 3024 | 711 | 4.0 | -10.5 | |||
| 2007-11-01T00:00 | 3031 | 710 | 3.9 | -10.5 | |||
| 2007-11-01T00:00 | 3036 | 709 | 3.9 | -10.6 | 75 | 13 | |
| 2007-11-01T00:00 | 3064 | 707 | 3.7 | -10.7 | |||
| 2007-11-01T00:00 | 3075 | 706 | 3.7 | -10.7 | |||
| 2007-11-01T00:00 | 3079 | 706 | 3.6 | -10.8 | |||
| 2007-11-01T00:00 | 3083 | 705 | 3.5 | -10.8 | 77 | 12 | |
| 2007-11-01T00:00 | 3106 | 703 | 3.3 | -11.0 | |||
| 2007-11-01T00:00 | 3122 | 702 | 3.2 | -11.1 | |||
| 2007-11-01T00:00 | 3128 | 702 | 3.1 | -11.2 | |||
| 2007-11-01T00:00 | 3133 | 701 | 3.1 | -11.2 | 79 | 12 | |
| 2007-11-01T00:00 | 3145 | 700 | 3.0 | -11.3 | |||
| 2007-11-01T00:00 | 3161 | 699 | 2.8 | -11.4 | |||
| 2007-11-01T00:00 | 3179 | 697 | 2.7 | -11.5 | |||
| 2007-11-01T00:00 | 3185 | 697 | 2.7 | -11.6 | |||
| 2007-11-01T00:00 | 3191 | 696 | 2.7 | -11.5 | 80 | 11 | |
| 2007-11-01T00:00 | 3219 | 694 | 2.7 | -11.5 | |||
| 2007-11-01T00:00 | 3235 | 692 | 2.6 | -11.5 | |||
| 2007-11-01T00:00 | 3240 | 692 | 2.5 | -11.5 | |||
| 2007-11-01T00:00 | 3245 | 691 | 2.5 | -11.6 | 80 | 11 | |
| 2007-11-01T00:00 | 3269 | 689 | 2.3 | -11.7 | |||
| 2007-11-01T00:00 | 3282 | 688 | 2.3 | -11.8 | |||
| 2007-11-01T00:00 | 3286 | 688 | 2.2 | -11.8 | |||
| 2007-11-01T00:00 | 3315 | 685 | 2.0 | -12.0 | |||
| 2007-11-01T00:00 | 3326 | 685 | 1.9 | -12.1 | |||
| 2007-11-01T00:00 | 3336 | 684 | 1.8 | -12.1 | |||
| 2007-11-01T00:00 | 3365 | 681 | 1.7 | -12.2 | |||
| 2007-11-01T00:00 | 3374 | 680 | 1.6 | -12.3 | |||
| 2007-11-01T00:00 | 3378 | 680 | 1.5 | -12.3 | |||
| 2007-11-01T00:00 | 3409 | 678 | 1.3 | -12.5 | |||
| 2007-11-01T00:00 | 3418 | 677 | 1.2 | -12.5 | |||
| 2007-11-01T00:00 | 3422 | 676 | 1.2 | -12.6 | |||
| 2007-11-01T00:00 | 3457 | 673 | 1.0 | -12.8 | |||
| 2007-11-01T00:00 | 3469 | 672 | 0.9 | -12.8 | |||
| 2007-11-01T00:00 | 3474 | 672 | 0.9 | -12.9 | |||
| 2007-11-01T00:00 | 3513 | 669 | 0.7 | -13.0 | |||
| 2007-11-01T00:00 | 3523 | 668 | 0.6 | -13.1 | |||
| 2007-11-01T00:00 | 3528 | 668 | 0.5 | -13.2 | |||
| 2007-11-01T00:00 | 3537 | 667 | 0.4 | -13.2 | 65 | 11 | |
| 2007-11-01T00:00 | 3561 | 665 | 0.2 | -13.4 | |||
| 2007-11-01T00:00 | 3570 | 664 | 0.1 | -13.5 | |||
| 2007-11-01T00:00 | 3575 | 664 | 0.0 | -13.6 | |||
| 2007-11-01T00:00 | 3611 | 661 | -0.2 | -13.8 | |||
| 2007-11-01T00:00 | 3623 | 660 | -0.4 | -13.9 | |||
| 2007-11-01T00:00 | 3629 | 659 | -0.5 | -14.0 | |||
| 2007-11-01T00:00 | 3671 | 656 | -0.8 | -14.2 | |||
| 2007-11-01T00:00 | 3683 | 655 | -0.9 | -14.3 | |||
| 2007-11-01T00:00 | 3690 | 654 | -1.0 | -14.4 | |||
| 2007-11-01T00:00 | 3730 | 651 | -1.2 | -14.4 | |||
| 2007-11-01T00:00 | 3741 | 650 | -1.2 | -14.3 | |||
| 2007-11-01T00:00 | 3751 | 649 | -1.3 | -14.3 | |||
| 2007-11-01T00:00 | 3782 | 647 | -1.6 | -14.4 | |||
| 2007-11-01T00:00 | 3793 | 646 | -1.8 | -14.5 | |||
| 2007-11-01T00:00 | 3803 | 645 | -1.8 | -14.4 | |||
| 2007-11-01T00:00 | 3835 | 642 | -2.1 | -14.7 | |||
| 2007-11-01T00:00 | 3851 | 641 | -2.2 | -14.7 | |||
| 2007-11-01T00:00 | 3857 | 641 | -2.3 | -14.8 | |||
| 2007-11-01T00:00 | 3862 | 640 | -2.4 | -14.8 | 57 | 13 | |
| 2007-11-01T00:00 | 3891 | 638 | -2.6 | -15.0 | |||
| 2007-11-01T00:00 | 3909 | 636 | -2.7 | -15.1 | |||
| 2007-11-01T00:00 | 3915 | 636 | -2.8 | -15.1 | |||
| 2007-11-01T00:00 | 3954 | 633 | -3.0 | -15.3 | |||
| 2007-11-01T00:00 | 3974 | 631 | -3.1 | -15.3 | |||
| 2007-11-01T00:00 | 3981 | 631 | -3.1 | -15.3 | |||
| 2007-11-01T00:00 | 4022 | 627 | -3.4 | -15.6 | |||
| 2007-11-01T00:00 | 4042 | 626 | -3.4 | -15.7 | |||
| 2007-11-01T00:00 | 4049 | 625 | -3.4 | -15.6 | |||
| 2007-11-01T00:00 | 4085 | 622 | -3.5 | -15.9 | |||
| 2007-11-01T00:00 | 4100 | 621 | -3.6 | -16.0 | |||
| 2007-11-01T00:00 | 4105 | 621 | -3.7 | -16.1 | |||
| 2007-11-01T00:00 | 4139 | 618 | -3.8 | -16.3 | |||
| 2007-11-01T00:00 | 4158 | 617 | -3.9 | -16.5 | |||
| 2007-11-01T00:00 | 4164 | 616 | -4.0 | -16.5 | |||
| 2007-11-01T00:00 | 4203 | 613 | -4.3 | -16.8 | |||
| 2007-11-01T00:00 | 4224 | 612 | -4.4 | -16.9 | |||
| 2007-11-01T00:00 | 4230 | 611 | -4.4 | -17.0 | |||
| 2007-11-01T00:00 | 4237 | 610 | -4.5 | -17.0 | 63 | 14 | |
| 2007-11-01T00:00 | 4272 | 608 | -4.7 | -17.3 | |||
| 2007-11-01T00:00 | 4292 | 606 | -4.8 | -17.4 | |||
| 2007-11-01T00:00 | 4299 | 606 | -4.8 | -17.4 | |||
| 2007-11-01T00:00 | 4340 | 603 | -5.2 | -17.7 | |||
| 2007-11-01T00:00 | 4361 | 601 | -5.2 | -17.7 | |||
| 2007-11-01T00:00 | 4369 | 600 | -5.3 | -17.8 | |||
| 2007-11-01T00:00 | 4373 | 600 | -5.3 | -17.8 | |||
| 2007-11-01T00:00 | 4408 | 597 | -5.6 | -18.0 | |||
| 2007-11-01T00:00 | 4425 | 596 | -5.7 | -18.1 | |||
| 2007-11-01T00:00 | 4431 | 596 | -5.7 | -18.2 | |||
| 2007-11-01T00:00 | 4477 | 592 | -6.1 | -18.3 | |||
| 2007-11-01T00:00 | 4492 | 591 | -6.3 | -18.3 | |||
| 2007-11-01T00:00 | 4507 | 590 | -6.4 | -18.3 | |||
| 2007-11-01T00:00 | 4548 | 587 | -6.6 | -18.5 | |||
| 2007-11-01T00:00 | 4566 | 585 | -6.7 | -18.6 | |||
| 2007-11-01T00:00 | 4573 | 585 | -6.8 | -18.7 | |||
| 2007-11-01T00:00 | 4611 | 582 | -6.9 | -18.9 | |||
| 2007-11-01T00:00 | 4631 | 581 | -7.0 | -19.1 | |||
| 2007-11-01T00:00 | 4637 | 580 | -7.1 | -19.2 | 62 | 15 | |
| 2007-11-01T00:00 | 4675 | 577 | -7.3 | -19.4 | |||
| 2007-11-01T00:00 | 4692 | 576 | -7.4 | -19.4 | |||
| 2007-11-01T00:00 | 4698 | 576 | -7.5 | -19.5 | |||
| 2007-11-01T00:00 | 4735 | 573 | -7.8 | -19.7 | |||
| 2007-11-01T00:00 | 4754 | 571 | -7.7 | -19.8 | |||
| 2007-11-01T00:00 | 4760 | 571 | -7.8 | -19.8 | |||
| 2007-11-01T00:00 | 4799 | 568 | -8.0 | -20.1 | |||
| 2007-11-01T00:00 | 4820 | 567 | -8.1 | -20.2 | |||
| 2007-11-01T00:00 | 4826 | 566 | -8.2 | -20.3 | |||
| 2007-11-01T00:00 | 4874 | 563 | -8.4 | -20.6 | |||
| 2007-11-01T00:00 | 4887 | 562 | -8.5 | -20.7 | |||
| 2007-11-01T00:00 | 4901 | 561 | -8.6 | -20.8 | |||
| 2007-11-01T00:00 | 4938 | 558 | -8.8 | -21.0 | |||
| 2007-11-01T00:00 | 4954 | 557 | -9.0 | -21.1 | |||
| 2007-11-01T00:00 | 4959 | 557 | -9.1 | -21.2 | |||
| 2007-11-01T00:00 | 4995 | 554 | -9.2 | -21.4 | |||
| 2007-11-01T00:00 | 5014 | 553 | -9.4 | -21.6 | 58 | 14 | |
| 2007-11-01T00:00 | 5021 | 552 | -9.5 | -21.7 | |||
| 2007-11-01T00:00 | 5058 | 549 | -9.8 | -22.0 | |||
| 2007-11-01T00:00 | 5075 | 548 | -9.9 | -22.0 | |||
| 2007-11-01T00:00 | 5080 | 548 | -10.0 | -22.1 | |||
| 2007-11-01T00:00 | 5115 | 545 | -10.3 | -22.4 | |||
| 2007-11-01T00:00 | 5133 | 544 | -10.4 | -22.4 | |||
| 2007-11-01T00:00 | 5145 | 543 | -10.4 | -22.5 | |||
| 2007-11-01T00:00 | 5181 | 541 | -10.6 | -22.7 | |||
| 2007-11-01T00:00 | 5199 | 539 | -10.7 | -22.9 | |||
| 2007-11-01T00:00 | 5206 | 539 | -10.8 | -22.9 | |||
| 2007-11-01T00:00 | 5241 | 537 | -11.1 | -23.2 | |||
| 2007-11-01T00:00 | 5258 | 535 | -11.3 | -23.4 | |||
| 2007-11-01T00:00 | 5264 | 535 | -11.4 | -23.5 | |||
| 2007-11-01T00:00 | 5297 | 533 | -11.7 | -23.8 | |||
| 2007-11-01T00:00 | 5313 | 532 | -11.8 | -23.9 | |||
| 2007-11-01T00:00 | 5318 | 531 | -11.9 | -23.9 | |||
| 2007-11-01T00:00 | 5351 | 529 | -12.2 | -24.1 | |||
| 2007-11-01T00:00 | 5364 | 528 | -12.3 | -24.2 | 52 | 14 | |
| 2007-11-01T00:00 | 5371 | 528 | -12.4 | -24.2 | |||
| 2007-11-01T00:00 | 5384 | 527 | -12.4 | -24.3 | |||
| 2007-11-01T00:00 | 5423 | 524 | -12.9 | -24.6 | |||
| 2007-11-01T00:00 | 5441 | 523 | -12.9 | -24.7 | |||
| 2007-11-01T00:00 | 5448 | 522 | -13.1 | -24.8 | |||
| 2007-11-01T00:00 | 5484 | 520 | -13.4 | -25.0 | |||
| 2007-11-01T00:00 | 5501 | 519 | -13.5 | -25.1 | |||
| 2007-11-01T00:00 | 5507 | 518 | -13.6 | -25.2 | |||
| 2007-11-01T00:00 | 5541 | 516 | -14.0 | -25.4 | |||
| 2007-11-01T00:00 | 5557 | 515 | -14.1 | -25.5 | |||
| 2007-11-01T00:00 | 5569 | 514 | -14.2 | -25.5 | |||
| 2007-11-01T00:00 | 5601 | 512 | -14.5 | -25.7 | |||
| 2007-11-01T00:00 | 5616 | 511 | -14.6 | -25.8 | |||
| 2007-11-01T00:00 | 5621 | 510 | -14.6 | -25.8 | |||
| 2007-11-01T00:00 | 5652 | 508 | -15.0 | -26.1 | |||
| 2007-11-01T00:00 | 5669 | 507 | -15.1 | -26.1 | |||
| 2007-11-01T00:00 | 5674 | 507 | -15.1 | -26.1 | |||
| 2007-11-01T00:00 | 5706 | 505 | -15.4 | -26.3 | 48 | 15 | |
| 2007-11-01T00:00 | 5722 | 504 | -15.5 | -26.4 | |||
| 2007-11-01T00:00 | 5732 | 503 | -15.6 | -26.4 | |||
| 2007-11-01T00:00 | 5762 | 501 | -15.9 | -26.6 | |||
| 2007-11-01T00:00 | 5777 | 500 | -16.0 | -26.7 | |||
| 2007-11-01T00:00 | 5778 | 500 | -16.0 | -26.7 | |||
| 2007-11-01T00:00 | 5783 | 500 | -16.1 | -26.8 | |||
| 2007-11-01T00:00 | 5815 | 497 | -16.4 | -27.0 | |||
| 2007-11-01T00:00 | 5833 | 496 | -16.5 | -27.0 | |||
| 2007-11-01T00:00 | 5840 | 496 | -16.6 | -27.1 | |||
| 2007-11-01T00:00 | 5878 | 493 | -16.8 | -27.2 | |||
| 2007-11-01T00:00 | 5893 | 492 | -16.9 | -27.3 | |||
| 2007-11-01T00:00 | 5898 | 492 | -17.0 | -27.4 | |||
| 2007-11-01T00:00 | 5928 | 490 | -17.2 | -27.6 | |||
| 2007-11-01T00:00 | 5943 | 489 | -17.4 | -27.7 | |||
| 2007-11-01T00:00 | 5948 | 489 | -17.5 | -27.8 | |||
| 2007-11-01T00:00 | 5982 | 487 | -17.9 | -28.1 | |||
| 2007-11-01T00:00 | 6001 | 485 | -18.0 | -28.2 | |||
| 2007-11-01T00:00 | 6014 | 484 | -18.1 | -28.2 | |||
| 2007-11-01T00:00 | 6030 | 483 | -18.2 | -28.4 | 54 | 16 | |
| 2007-11-01T00:00 | 6047 | 482 | -18.4 | -28.5 | |||
| 2007-11-01T00:00 | 6062 | 481 | -18.4 | -28.5 | |||
| 2007-11-01T00:00 | 6066 | 481 | -18.5 | -28.6 | |||
| 2007-11-01T00:00 | 6097 | 479 | -18.8 | -28.8 | |||
| 2007-11-01T00:00 | 6114 | 478 | -18.9 | -28.9 | |||
| 2007-11-01T00:00 | 6119 | 478 | -18.9 | -28.9 | |||
| 2007-11-01T00:00 | 6161 | 475 | -19.2 | -29.3 | |||
| 2007-11-01T00:00 | 6181 | 474 | -19.4 | -29.5 | |||
| 2007-11-01T00:00 | 6188 | 473 | -19.5 | -29.6 | |||
| 2007-11-01T00:00 | 6227 | 471 | -19.9 | -30.1 | |||
| 2007-11-01T00:00 | 6246 | 470 | -20.1 | -30.3 | |||
| 2007-11-01T00:00 | 6253 | 469 | -20.2 | -30.4 | |||
| 2007-11-01T00:00 | 6292 | 467 | -20.5 | -30.7 | |||
| 2007-11-01T00:00 | 6313 | 465 | -20.6 | -30.8 | |||
| 2007-11-01T00:00 | 6327 | 464 | -20.7 | -30.9 | |||
| 2007-11-01T00:00 | 6364 | 462 | -21.1 | -31.3 | |||
| 2007-11-01T00:00 | 6381 | 461 | -21.2 | -31.4 | |||
| 2007-11-01T00:00 | 6386 | 461 | -21.3 | -31.4 | |||
| 2007-11-01T00:00 | 6392 | 460 | -21.4 | -31.5 | 52 | 15 | |
| 2007-11-01T00:00 | 6422 | 459 | -21.6 | -31.7 | |||
| 2007-11-01T00:00 | 6442 | 457 | -21.8 | -31.9 | |||
| 2007-11-01T00:00 | 6456 | 456 | -21.8 | -32.0 | |||
| 2007-11-01T00:00 | 6496 | 454 | -22.2 | -32.3 | |||
| 2007-11-01T00:00 | 6516 | 453 | -22.4 | -32.5 | |||
| 2007-11-01T00:00 | 6523 | 452 | -22.5 | -32.5 | |||
| 2007-11-01T00:00 | 6559 | 450 | -22.8 | -32.8 | |||
| 2007-11-01T00:00 | 6572 | 449 | -22.9 | -32.9 | |||
| 2007-11-01T00:00 | 6581 | 449 | -22.9 | -33.0 | |||
| 2007-11-01T00:00 | 6613 | 447 | -23.2 | -33.2 | |||
| 2007-11-01T00:00 | 6631 | 446 | -23.1 | -33.2 | |||
| 2007-11-01T00:00 | 6637 | 445 | -23.2 | -33.2 | |||
| 2007-11-01T00:00 | 6672 | 443 | -23.5 | -33.5 | |||
| 2007-11-01T00:00 | 6693 | 442 | -23.6 | -33.7 | |||
| 2007-11-01T00:00 | 6699 | 442 | -23.8 | -33.8 | |||
| 2007-11-01T00:00 | 6731 | 440 | -24.0 | -34.0 | |||
| 2007-11-01T00:00 | 6741 | 439 | -24.1 | -34.1 | 53 | 15 | |
| 2007-11-01T00:00 | 6746 | 439 | -24.1 | -34.1 | |||
| 2007-11-01T00:00 | 6752 | 438 | -24.2 | -34.2 | |||
| 2007-11-01T00:00 | 6788 | 436 | -24.5 | -34.5 | |||
| 2007-11-01T00:00 | 6803 | 435 | -24.7 | -34.6 | |||
| 2007-11-01T00:00 | 6808 | 435 | -24.8 | -34.7 | |||
| 2007-11-01T00:00 | 6843 | 433 | -25.1 | -34.9 | |||
| 2007-11-01T00:00 | 6862 | 432 | -25.3 | -35.1 | |||
| 2007-11-01T00:00 | 6869 | 431 | -25.4 | -35.2 | |||
| 2007-11-01T00:00 | 6913 | 429 | -25.7 | -35.4 | |||
| 2007-11-01T00:00 | 6930 | 428 | -25.9 | -35.6 | |||
| 2007-11-01T00:00 | 6936 | 427 | -26.0 | -35.7 | |||
| 2007-11-01T00:00 | 6970 | 425 | -26.3 | -35.9 | |||
| 2007-11-01T00:00 | 6986 | 424 | -26.5 | -36.0 | |||
| 2007-11-01T00:00 | 6997 | 424 | -26.5 | -36.1 | |||
| 2007-11-01T00:00 | 7030 | 422 | -26.8 | -36.3 | |||
| 2007-11-01T00:00 | 7047 | 421 | -27.0 | -36.3 | |||
| 2007-11-01T00:00 | 7052 | 421 | -27.1 | -36.4 | |||
| 2007-11-01T00:00 | 7082 | 419 | -27.4 | -36.7 | 59 | 16 | |
| 2007-11-01T00:00 | 7088 | 418 | -27.5 | -36.8 | |||
| 2007-11-01T00:00 | 7115 | 417 | -27.6 | -36.8 | |||
| 2007-11-01T00:00 | 7122 | 416 | -27.7 | -36.9 | |||
| 2007-11-01T00:00 | 7158 | 414 | -28.0 | -37.2 | |||
| 2007-11-01T00:00 | 7173 | 414 | -28.1 | -37.3 | |||
| 2007-11-01T00:00 | 7184 | 413 | -28.2 | -37.3 | |||
| 2007-11-01T00:00 | 7213 | 411 | -28.5 | -37.5 | |||
| 2007-11-01T00:00 | 7228 | 410 | -28.5 | -37.5 | |||
| 2007-11-01T00:00 | 7233 | 410 | -28.6 | -37.6 | |||
| 2007-11-01T00:00 | 7263 | 408 | -28.8 | -37.8 | |||
| 2007-11-01T00:00 | 7280 | 407 | -29.0 | -37.9 | |||
| 2007-11-01T00:00 | 7292 | 407 | -29.0 | -38.0 | |||
| 2007-11-01T00:00 | 7327 | 405 | -29.4 | -38.2 | |||
| 2007-11-01T00:00 | 7346 | 404 | -29.6 | -38.4 | |||
| 2007-11-01T00:00 | 7352 | 403 | -29.7 | -38.4 | |||
| 2007-11-01T00:00 | 7392 | 401 | -30.0 | -38.6 | |||
| 2007-11-01T00:00 | 7407 | 400 | -30.1 | -38.6 | |||
| 2007-11-01T00:00 | 7411 | 400 | -30.1 | -38.7 | |||
| 2007-11-01T00:00 | 7412 | 400 | -30.1 | -38.7 | |||
| 2007-11-01T00:00 | 7418 | 400 | -30.2 | -38.7 | 65 | 17 | |
| 2007-11-01T00:00 | 7446 | 398 | -30.4 | -38.9 | |||
| 2007-11-01T00:00 | 7465 | 397 | -30.5 | -39.0 | |||
| 2007-11-01T00:00 | 7477 | 396 | -30.6 | -39.1 | |||
| 2007-11-01T00:00 | 7512 | 394 | -30.9 | -39.3 | |||
| 2007-11-01T00:00 | 7529 | 393 | -31.0 | -39.5 | |||
| 2007-11-01T00:00 | 7534 | 393 | -31.1 | -39.6 | |||
| 2007-11-01T00:00 | 7568 | 391 | -31.4 | -39.8 | |||
| 2007-11-01T00:00 | 7591 | 390 | -31.5 | -39.9 | |||
| 2007-11-01T00:00 | 7597 | 390 | -31.6 | -40.0 | |||
| 2007-11-01T00:00 | 7634 | 388 | -32.0 | -40.3 | |||
| 2007-11-01T00:00 | 7654 | 387 | -32.1 | -40.5 | |||
| 2007-11-01T00:00 | 7667 | 386 | -32.2 | -40.5 | |||
| 2007-11-01T00:00 | 7702 | 384 | -32.5 | -40.9 | |||
| 2007-11-01T00:00 | 7718 | 383 | -32.6 | -41.0 | |||
| 2007-11-01T00:00 | 7723 | 383 | -32.7 | -41.0 | |||
| 2007-11-01T00:00 | 7758 | 381 | -32.9 | -41.2 | |||
| 2007-11-01T00:00 | 7772 | 380 | -33.0 | -41.3 | 62 | 19 | |
| 2007-11-01T00:00 | 7786 | 379 | -33.0 | -41.3 | |||
| 2007-11-01T00:00 | 7793 | 379 | -33.1 | -41.5 | |||
| 2007-11-01T00:00 | 7832 | 377 | -33.5 | -41.8 | |||
| 2007-11-01T00:00 | 7851 | 376 | -33.6 | -41.9 | |||
| 2007-11-01T00:00 | 7864 | 375 | -33.7 | -42.0 | |||
| 2007-11-01T00:00 | 7895 | 373 | -33.9 | -42.2 | |||
| 2007-11-01T00:00 | 7908 | 373 | -33.9 | -42.2 | |||
| 2007-11-01T00:00 | 7912 | 373 | -34.0 | -42.2 | |||
| 2007-11-01T00:00 | 7948 | 371 | -34.1 | -42.4 | |||
| 2007-11-01T00:00 | 7967 | 370 | -34.1 | -42.4 | |||
| 2007-11-01T00:00 | 7973 | 369 | -34.2 | -42.5 | |||
| 2007-11-01T00:00 | 8012 | 367 | -34.4 | -42.8 | |||
| 2007-11-01T00:00 | 8038 | 366 | -34.5 | -43.0 | |||
| 2007-11-01T00:00 | 8045 | 366 | -34.6 | -43.0 | |||
| 2007-11-01T00:00 | 8081 | 364 | -34.9 | -43.4 | |||
| 2007-11-01T00:00 | 8098 | 363 | -35.1 | -43.6 | |||
| 2007-11-01T00:00 | 8110 | 362 | -35.2 | -43.7 | |||
| 2007-11-01T00:00 | 8127 | 361 | -35.4 | -43.8 | 60 | 18 | |
| 2007-11-01T00:00 | 8144 | 360 | -35.5 | -44.0 | |||
| 2007-11-01T00:00 | 8161 | 360 | -35.5 | -44.1 | |||
| 2007-11-01T00:00 | 8167 | 359 | -35.7 | -44.2 | |||
| 2007-11-01T00:00 | 8208 | 357 | -35.9 | -44.5 | |||
| 2007-11-01T00:00 | 8225 | 356 | -36.1 | -44.7 | |||
| 2007-11-01T00:00 | 8231 | 356 | -36.2 | -44.8 | |||
| 2007-11-01T00:00 | 8268 | 354 | -36.6 | -45.2 | |||
| 2007-11-01T00:00 | 8295 | 353 | -36.7 | -45.3 | |||
| 2007-11-01T00:00 | 8302 | 352 | -36.8 | -45.4 | |||
| 2007-11-01T00:00 | 8340 | 350 | -37.0 | -45.7 | |||
| 2007-11-01T00:00 | 8358 | 349 | -37.0 | -45.7 | |||
| 2007-11-01T00:00 | 8370 | 349 | -37.1 | -45.8 | |||
| 2007-11-01T00:00 | 8402 | 347 | -37.6 | -46.3 | |||
| 2007-11-01T00:00 | 8417 | 346 | -37.6 | -46.4 | |||
| 2007-11-01T00:00 | 8427 | 346 | -37.7 | -46.5 | |||
| 2007-11-01T00:00 | 8458 | 344 | -38.0 | -46.8 | |||
| 2007-11-01T00:00 | 8475 | 344 | -38.1 | -46.8 | 61 | 18 | |
| 2007-11-01T00:00 | 8480 | 343 | -38.2 | -46.9 | |||
| 2007-11-01T00:00 | 8522 | 341 | -38.5 | -47.2 | |||
| 2007-11-01T00:00 | 8541 | 340 | -38.5 | -47.3 | |||
| 2007-11-01T00:00 | 8547 | 340 | -38.5 | -47.2 | |||
| 2007-11-01T00:00 | 8586 | 338 | -38.7 | -47.5 | |||
| 2007-11-01T00:00 | 8601 | 337 | -38.9 | -47.6 | |||
| 2007-11-01T00:00 | 8605 | 337 | -38.9 | -47.7 | |||
| 2007-11-01T00:00 | 8636 | 336 | -39.2 | -47.9 | |||
| 2007-11-01T00:00 | 8659 | 334 | -39.2 | -48.0 | |||
| 2007-11-01T00:00 | 8665 | 334 | -39.4 | -48.1 | |||
| 2007-11-01T00:00 | 8700 | 332 | -39.6 | -48.3 | |||
| 2007-11-01T00:00 | 8718 | 332 | -39.6 | -48.4 | |||
| 2007-11-01T00:00 | 8730 | 331 | -39.6 | -48.4 | |||
| 2007-11-01T00:00 | 8764 | 329 | -40.0 | -48.7 | |||
| 2007-11-01T00:00 | 8782 | 329 | -40.0 | -48.8 | |||
| 2007-11-01T00:00 | 8793 | 328 | -40.2 | -48.9 | |||
| 2007-11-01T00:00 | 8815 | 327 | -40.5 | -49.2 | 68 | 21 | |
| 2007-11-01T00:00 | 8826 | 326 | -40.6 | -49.3 | |||
| 2007-11-01T00:00 | 8842 | 326 | -40.7 | -49.4 | |||
| 2007-11-01T00:00 | 8852 | 325 | -40.8 | -49.5 | |||
| 2007-11-01T00:00 | 8889 | 323 | -41.1 | -49.9 | |||
| 2007-11-01T00:00 | 8910 | 322 | -41.3 | -50.0 | |||
| 2007-11-01T00:00 | 8924 | 322 | -41.4 | -50.1 | |||
| 2007-11-01T00:00 | 8959 | 320 | -41.7 | -50.4 | |||
| 2007-11-01T00:00 | 8973 | 319 | -41.8 | -50.5 | |||
| 2007-11-01T00:00 | 8982 | 319 | -41.8 | -50.6 | |||
| 2007-11-01T00:00 | 9014 | 318 | -42.1 | -50.8 | |||
| 2007-11-01T00:00 | 9031 | 317 | -42.3 | -51.0 | |||
| 2007-11-01T00:00 | 9037 | 316 | -42.4 | -51.1 | |||
| 2007-11-01T00:00 | 9081 | 314 | -42.8 | -51.4 | |||
| 2007-11-01T00:00 | 9102 | 313 | -42.8 | -51.5 | |||
| 2007-11-01T00:00 | 9109 | 313 | -43.0 | -51.6 | |||
| 2007-11-01T00:00 | 9150 | 311 | -43.3 | -52.0 | |||
| 2007-11-01T00:00 | 9164 | 310 | -43.5 | -52.1 | 64 | 21 | |
| 2007-11-01T00:00 | 9169 | 310 | -43.7 | -52.3 | |||
| 2007-11-01T00:00 | 9203 | 309 | -43.9 | -52.5 | |||
| 2007-11-01T00:00 | 9218 | 308 | -44.0 | -52.6 | |||
| 2007-11-01T00:00 | 9223 | 308 | -44.1 | -52.7 | |||
| 2007-11-01T00:00 | 9259 | 306 | -44.4 | -53.0 | |||
| 2007-11-01T00:00 | 9276 | 305 | -44.5 | -53.1 | |||
| 2007-11-01T00:00 | 9282 | 305 | -44.6 | -53.2 | |||
| 2007-11-01T00:00 | 9321 | 303 | -44.9 | -53.5 | |||
| 2007-11-01T00:00 | 9338 | 303 | -45.0 | -53.5 | |||
| 2007-11-01T00:00 | 9343 | 302 | -45.0 | -53.6 | |||
| 2007-11-01T00:00 | 9383 | 301 | -45.3 | -53.9 | |||
| 2007-11-01T00:00 | 9394 | 300 | -45.4 | -53.9 | |||
| 2007-11-01T00:00 | 9400 | 300 | -45.4 | -53.9 | |||
| 2007-11-01T00:00 | 9406 | 300 | -45.4 | -54.0 | |||
| 2007-11-01T00:00 | 9443 | 298 | -45.8 | -54.3 | |||
| 2007-11-01T00:00 | 9458 | 297 | -45.8 | -54.3 | |||
| 2007-11-01T00:00 | 9463 | 297 | -45.9 | -54.4 | |||
| 2007-11-01T00:00 | 9485 | 296 | -46.1 | -54.6 | 63 | 21 | |
| 2007-11-01T00:00 | 9502 | 295 | -46.2 | -54.7 | |||
| 2007-11-01T00:00 | 9521 | 294 | -46.3 | -54.8 | |||
| 2007-11-01T00:00 | 9527 | 294 | -46.5 | -54.9 | |||
| 2007-11-01T00:00 | 9571 | 292 | -46.8 | -55.3 | |||
| 2007-11-01T00:00 | 9589 | 291 | -47.0 | -55.4 | |||
| 2007-11-01T00:00 | 9595 | 291 | -47.1 | -55.5 | |||
| 2007-11-01T00:00 | 9633 | 289 | -47.4 | -55.8 | |||
| 2007-11-01T00:00 | 9647 | 289 | -47.5 | -55.9 | |||
| 2007-11-01T00:00 | 9656 | 288 | -47.6 | -56.0 | |||
| 2007-11-01T00:00 | 9686 | 287 | -47.9 | -56.3 | |||
| 2007-11-01T00:00 | 9702 | 286 | -48.1 | -56.4 | |||
| 2007-11-01T00:00 | 9713 | 286 | -48.2 | -56.5 | |||
| 2007-11-01T00:00 | 9746 | 284 | -48.5 | -56.8 | |||
| 2007-11-01T00:00 | 9763 | 284 | -48.6 | -56.9 | |||
| 2007-11-01T00:00 | 9774 | 283 | -48.7 | -57.0 | |||
| 2007-11-01T00:00 | 9811 | 282 | -49.2 | -57.4 | |||
| 2007-11-01T00:00 | 9825 | 281 | -49.3 | -57.5 | 61 | 21 | |
| 2007-11-01T00:00 | 9832 | 281 | -49.3 | -57.6 | |||
| 2007-11-01T00:00 | 9845 | 280 | -49.4 | -57.7 | |||
| 2007-11-01T00:00 | 9879 | 279 | -49.8 | -58.0 | |||
| 2007-11-01T00:00 | 9892 | 278 | -49.9 | -58.1 | |||
| 2007-11-01T00:00 | 9901 | 278 | -50.0 | -58.2 | |||
| 2007-11-01T00:00 | 9931 | 277 | -50.3 | -58.5 | |||
| 2007-11-01T00:00 | 9947 | 276 | -50.4 | -58.5 | |||
| 2007-11-01T00:00 | 9958 | 275 | -50.4 | -58.6 | |||
| 2007-11-01T00:00 | 9993 | 274 | -50.8 | -58.9 | |||
| 2007-11-01T00:00 | 10017 | 273 | -50.9 | -59.0 | |||
| 2007-11-01T00:00 | 10023 | 273 | -50.8 | -59.0 | |||
| 2007-11-01T00:00 | 10056 | 271 | -51.0 | -59.1 | |||
| 2007-11-01T00:00 | 10075 | 271 | -51.0 | -59.2 | |||
| 2007-11-01T00:00 | 10080 | 270 | -51.1 | -59.2 | |||
| 2007-11-01T00:00 | 10117 | 269 | -51.4 | -59.5 | |||
| 2007-11-01T00:00 | 10135 | 268 | -51.5 | -59.6 | |||
| 2007-11-01T00:00 | 10141 | 268 | -51.5 | -59.6 | |||
| 2007-11-01T00:00 | 10152 | 267 | -51.5 | -59.6 | 60 | 21 | |
| 2007-11-01T00:00 | 10181 | 266 | -51.7 | -59.8 | |||
| 2007-11-01T00:00 | 10197 | 265 | -51.7 | -59.8 | |||
| 2007-11-01T00:00 | 10202 | 265 | -51.8 | -59.9 | |||
| 2007-11-01T00:00 | 10237 | 264 | -52.0 | -60.1 | |||
| 2007-11-01T00:00 | 10250 | 263 | -52.0 | -60.1 | |||
| 2007-11-01T00:00 | 10258 | 263 | -52.1 | -60.2 | |||
| 2007-11-01T00:00 | 10288 | 262 | -52.3 | -60.3 | |||
| 2007-11-01T00:00 | 10305 | 261 | -52.3 | -60.4 | |||
| 2007-11-01T00:00 | 10316 | 261 | -52.4 | -60.5 | |||
| 2007-11-01T00:00 | 10350 | 259 | -52.0 | -60.1 | |||
| 2007-11-01T00:00 | 10367 | 259 | -51.7 | -59.8 | |||
| 2007-11-01T00:00 | 10379 | 258 | -51.7 | -59.8 | |||
| 2007-11-01T00:00 | 10411 | 257 | -51.9 | -60.0 | |||
| 2007-11-01T00:00 | 10432 | 256 | -52.0 | -60.1 | |||
| 2007-11-01T00:00 | 10437 | 256 | -52.0 | -60.1 | |||
| 2007-11-01T00:00 | 10468 | 255 | -51.9 | -60.0 | 59 | 23 | |
| 2007-11-01T00:00 | 10488 | 254 | -51.8 | -59.9 | |||
| 2007-11-01T00:00 | 10492 | 254 | -51.9 | -60.0 | |||
| 2007-11-01T00:00 | 10525 | 252 | -52.1 | -60.2 | |||
| 2007-11-01T00:00 | 10551 | 251 | -52.3 | -60.3 | |||
| 2007-11-01T00:00 | 10558 | 251 | -52.2 | -60.3 | |||
| 2007-11-01T00:00 | 10586 | 250 | -52.3 | -60.3 | |||
| 2007-11-01T00:00 | 10601 | 249 | -52.3 | -60.4 | |||
| 2007-11-01T00:00 | 10618 | 249 | -52.3 | -60.4 | |||
| 2007-11-01T00:00 | 10624 | 249 | -52.3 | -60.4 | |||
| 2007-11-01T00:00 | 10664 | 247 | -52.5 | -60.5 | |||
| 2007-11-01T00:00 | 10681 | 246 | -52.6 | -60.6 | |||
| 2007-11-01T00:00 | 10692 | 246 | -52.7 | -60.7 | |||
| 2007-11-01T00:00 | 10723 | 245 | -53.0 | -61.0 | |||
| 2007-11-01T00:00 | 10737 | 244 | -53.1 | -61.1 | |||
| 2007-11-01T00:00 | 10747 | 244 | -53.2 | -61.2 | |||
| 2007-11-01T00:00 | 10779 | 243 | -53.5 | -61.5 | |||
| 2007-11-01T00:00 | 10797 | 242 | -53.6 | -61.6 | |||
| 2007-11-01T00:00 | 10804 | 242 | -53.6 | -61.6 | 54 | 22 | |
| 2007-11-01T00:00 | 10810 | 241 | -53.7 | -61.7 | |||
| 2007-11-01T00:00 | 10845 | 240 | -54.0 | -61.9 | |||
| 2007-11-01T00:00 | 10862 | 240 | -54.0 | -62.0 | |||
| 2007-11-01T00:00 | 10873 | 239 | -54.0 | -62.0 | |||
| 2007-11-01T00:00 | 10905 | 238 | -54.3 | -62.2 | |||
| 2007-11-01T00:00 | 10923 | 237 | -54.4 | -62.3 | |||
| 2007-11-01T00:00 | 10928 | 237 | -54.4 | -62.3 | |||
| 2007-11-01T00:00 | 10958 | 236 | -54.7 | -62.6 | |||
| 2007-11-01T00:00 | 10979 | 235 | -54.7 | -62.6 | |||
| 2007-11-01T00:00 | 10985 | 235 | -54.8 | -62.7 | |||
| 2007-11-01T00:00 | 11024 | 234 | -54.8 | -62.7 | |||
| 2007-11-01T00:00 | 11041 | 233 | -54.6 | -62.5 | |||
| 2007-11-01T00:00 | 11047 | 233 | -54.6 | -62.5 | |||
| 2007-11-01T00:00 | 11092 | 231 | -54.2 | -62.2 | |||
| 2007-11-01T00:00 | 11114 | 230 | -54.2 | -62.1 | |||
| 2007-11-01T00:00 | 11129 | 230 | -54.1 | -62.0 | |||
| 2007-11-01T00:00 | 11150 | 229 | -54.1 | -62.0 | 64 | 20 | |
| 2007-11-01T00:00 | 11172 | 228 | -54.1 | -62.0 | |||
| 2007-11-01T00:00 | 11194 | 227 | -53.6 | -61.5 | |||
| 2007-11-01T00:00 | 11208 | 227 | -53.7 | -61.6 | |||
| 2007-11-01T00:00 | 11248 | 226 | -53.5 | -61.5 | |||
| 2007-11-01T00:00 | 11267 | 225 | -53.6 | -61.5 | |||
| 2007-11-01T00:00 | 11280 | 224 | -53.7 | -61.7 | |||
| 2007-11-01T00:00 | 11319 | 223 | -54.2 | -62.1 | |||
| 2007-11-01T00:00 | 11340 | 222 | -54.2 | -62.2 | |||
| 2007-11-01T00:00 | 11354 | 222 | -54.3 | -62.3 | |||
| 2007-11-01T00:00 | 11393 | 220 | -54.5 | -62.4 | |||
| 2007-11-01T00:00 | 11417 | 220 | -54.7 | -62.6 | |||
| 2007-11-01T00:00 | 11423 | 219 | -54.8 | -62.7 | |||
| 2007-11-01T00:00 | 11461 | 218 | -55.2 | -63.0 | |||
| 2007-11-01T00:00 | 11489 | 217 | -55.5 | -63.3 | |||
| 2007-11-01T00:00 | 11496 | 217 | -55.7 | -63.5 | |||
| 2007-11-01T00:00 | 11545 | 215 | -56.1 | -63.9 | |||
| 2007-11-01T00:00 | 11552 | 215 | -56.2 | -64.0 | 74 | 15 | |
| 2007-11-01T00:00 | 11565 | 215 | -56.2 | -64.0 | |||
| 2007-11-01T00:00 | 11579 | 214 | -56.4 | -64.2 | |||
| 2007-11-01T00:00 | 11623 | 213 | -56.6 | -64.4 | |||
| 2007-11-01T00:00 | 11647 | 212 | -56.7 | -64.5 | |||
| 2007-11-01T00:00 | 11662 | 211 | -56.8 | -64.6 | |||
| 2007-11-01T00:00 | 11704 | 210 | -57.0 | -64.8 | |||
| 2007-11-01T00:00 | 11723 | 209 | -57.2 | -64.9 | |||
| 2007-11-01T00:00 | 11736 | 209 | -57.3 | -65.0 | |||
| 2007-11-01T00:00 | 11770 | 208 | -57.5 | -65.2 | |||
| 2007-11-01T00:00 | 11791 | 207 | -57.5 | -65.3 | |||
| 2007-11-01T00:00 | 11796 | 207 | -57.7 | -65.4 | |||
| 2007-11-01T00:00 | 11829 | 206 | -58.0 | -65.8 | |||
| 2007-11-01T00:00 | 11852 | 205 | -58.1 | -65.8 | |||
| 2007-11-01T00:00 | 11857 | 205 | -58.2 | -65.9 | |||
| 2007-11-01T00:00 | 11895 | 204 | -58.6 | -66.3 | |||
| 2007-11-01T00:00 | 11909 | 203 | -58.7 | -66.3 | |||
| 2007-11-01T00:00 | 11919 | 203 | -58.6 | -66.3 | 70 | 13 | |
| 2007-11-01T00:00 | 11950 | 202 | -58.6 | -66.3 | |||
| 2007-11-01T00:00 | 11968 | 201 | -58.6 | -66.3 | |||
| 2007-11-01T00:00 | 11979 | 201 | -58.7 | -66.4 | |||
| 2007-11-01T00:00 | 12009 | 200 | -59.0 | -66.6 | |||
| 2007-11-01T00:00 | 12013 | 200 | -59.0 | ||||
| 2007-11-01T00:00 | 12030 | 199 | -59.1 | ||||
| 2007-11-01T00:00 | 12041 | 199 | -59.2 | ||||
| 2007-11-01T00:00 | 12069 | 198 | -59.4 | ||||
| 2007-11-01T00:00 | 12085 | 198 | -59.4 | ||||
| 2007-11-01T00:00 | 12089 | 197 | -59.5 | ||||
| 2007-11-01T00:00 | 12117 | 197 | -59.7 | ||||
| 2007-11-01T00:00 | 12129 | 196 | -59.8 | ||||
| 2007-11-01T00:00 | 12133 | 196 | -59.7 | ||||
| 2007-11-01T00:00 | 12165 | 195 | -59.4 | ||||
| 2007-11-01T00:00 | 12179 | 195 | -59.3 | ||||
| 2007-11-01T00:00 | 12189 | 194 | -59.4 | ||||
| 2007-11-01T00:00 | 12210 | 194 | -59.4 | 46 | 13 | ||
| 2007-11-01T00:00 | 12220 | 193 | -59.5 | ||||
| 2007-11-01T00:00 | 12236 | 193 | -59.5 | ||||
| 2007-11-01T00:00 | 12247 | 193 | -59.5 | ||||
| 2007-11-01T00:00 | 12277 | 192 | -58.9 | ||||
| 2007-11-01T00:00 | 12297 | 191 | -58.4 | ||||
| 2007-11-01T00:00 | 12302 | 191 | -58.5 | ||||
| 2007-11-01T00:00 | 12331 | 190 | -58.2 | ||||
| 2007-11-01T00:00 | 12348 | 189 | -58.2 | ||||
| 2007-11-01T00:00 | 12352 | 189 | -58.1 | ||||
| 2007-11-01T00:00 | 12382 | 188 | -57.9 | ||||
| 2007-11-01T00:00 | 12395 | 188 | -57.8 | ||||
| 2007-11-01T00:00 | 12403 | 188 | -57.7 | ||||
| 2007-11-01T00:00 | 12430 | 187 | -57.1 | ||||
| 2007-11-01T00:00 | 12444 | 187 | -57.2 | ||||
| 2007-11-01T00:00 | 12453 | 186 | -57.1 | ||||
| 2007-11-01T00:00 | 12479 | 186 | -57.2 | ||||
| 2007-11-01T00:00 | 12487 | 185 | -57.2 | 45 | 17 | ||
| 2007-11-01T00:00 | 12491 | 185 | -57.2 | ||||
| 2007-11-01T00:00 | 12499 | 185 | -57.2 | ||||
| 2007-11-01T00:00 | 12523 | 184 | -57.4 | ||||
| 2007-11-01T00:00 | 12535 | 184 | -57.5 | ||||
| 2007-11-01T00:00 | 12543 | 184 | -57.6 | ||||
| 2007-11-01T00:00 | 12569 | 183 | -57.6 | ||||
| 2007-11-01T00:00 | 12586 | 182 | -57.7 | ||||
| 2007-11-01T00:00 | 12591 | 182 | -57.7 | ||||
| 2007-11-01T00:00 | 12618 | 182 | -58.0 | ||||
| 2007-11-01T00:00 | 12637 | 181 | -58.1 | ||||
| 2007-11-01T00:00 | 12642 | 181 | -58.2 | ||||
| 2007-11-01T00:00 | 12675 | 180 | -58.5 | ||||
| 2007-11-01T00:00 | 12690 | 179 | -58.5 | ||||
| 2007-11-01T00:00 | 12699 | 179 | -58.6 | ||||
| 2007-11-01T00:00 | 12728 | 178 | -58.8 | ||||
| 2007-11-01T00:00 | 12743 | 178 | -58.7 | ||||
| 2007-11-01T00:00 | 12752 | 178 | -58.6 | ||||
| 2007-11-01T00:00 | 12757 | 178 | -58.6 | 39 | 20 | ||
| 2007-11-01T00:00 | 12782 | 177 | -58.6 | ||||
| 2007-11-01T00:00 | 12798 | 176 | -58.6 | ||||
| 2007-11-01T00:00 | 12808 | 176 | -58.7 | ||||
| 2007-11-01T00:00 | 12837 | 175 | -58.8 | ||||
| 2007-11-01T00:00 | 12850 | 175 | -58.9 | ||||
| 2007-11-01T00:00 | 12859 | 175 | -59.0 | ||||
| 2007-11-01T00:00 | 12886 | 174 | -59.2 | ||||
| 2007-11-01T00:00 | 12906 | 173 | -58.8 | ||||
| 2007-11-01T00:00 | 12911 | 173 | -58.8 | ||||
| 2007-11-01T00:00 | 12940 | 172 | -58.7 | ||||
| 2007-11-01T00:00 | 12960 | 172 | -58.7 | ||||
| 2007-11-01T00:00 | 12965 | 172 | -58.8 | ||||
| 2007-11-01T00:00 | 13008 | 171 | -58.7 | ||||
| 2007-11-01T00:00 | 13031 | 170 | -58.6 | ||||
| 2007-11-01T00:00 | 13046 | 170 | -58.2 | ||||
| 2007-11-01T00:00 | 13084 | 169 | -57.4 | 44 | 19 | ||
| 2007-11-01T00:00 | 13092 | 168 | -57.3 | ||||
| 2007-11-01T00:00 | 13115 | 168 | -57.2 | ||||
| 2007-11-01T00:00 | 13130 | 167 | -57.3 | ||||
| 2007-11-01T00:00 | 13172 | 166 | -57.2 | ||||
| 2007-11-01T00:00 | 13192 | 166 | -57.2 | ||||
| 2007-11-01T00:00 | 13205 | 165 | -57.3 | ||||
| 2007-11-01T00:00 | 13245 | 164 | -57.7 | ||||
| 2007-11-01T00:00 | 13267 | 164 | -57.7 | ||||
| 2007-11-01T00:00 | 13281 | 163 | -57.9 | ||||
| 2007-11-01T00:00 | 13318 | 162 | -57.9 | ||||
| 2007-11-01T00:00 | 13339 | 162 | -57.9 | ||||
| 2007-11-01T00:00 | 13344 | 162 | -57.9 | ||||
| 2007-11-01T00:00 | 13375 | 161 | -57.9 | ||||
| 2007-11-01T00:00 | 13396 | 160 | -57.9 | ||||
| 2007-11-01T00:00 | 13401 | 160 | -58.0 | ||||
| 2007-11-01T00:00 | 13431 | 160 | -58.1 | ||||
| 2007-11-01T00:00 | 13451 | 159 | -58.2 | 59 | 15 | ||
| 2007-11-01T00:00 | 13456 | 159 | -58.2 | ||||
| 2007-11-01T00:00 | 13494 | 158 | -58.5 | ||||
| 2007-11-01T00:00 | 13512 | 158 | -58.6 | ||||
| 2007-11-01T00:00 | 13518 | 157 | -58.6 | ||||
| 2007-11-01T00:00 | 13557 | 156 | -58.8 | ||||
| 2007-11-01T00:00 | 13573 | 156 | -58.9 | ||||
| 2007-11-01T00:00 | 13584 | 156 | -59.0 | ||||
| 2007-11-01T00:00 | 13617 | 155 | -59.3 | ||||
| 2007-11-01T00:00 | 13634 | 154 | -59.4 | ||||
| 2007-11-01T00:00 | 13645 | 154 | -59.5 | ||||
| 2007-11-01T00:00 | 13678 | 153 | -59.8 | ||||
| 2007-11-01T00:00 | 13693 | 153 | -59.9 | ||||
| 2007-11-01T00:00 | 13703 | 153 | -60.0 | ||||
| 2007-11-01T00:00 | 13736 | 152 | -60.2 | ||||
| 2007-11-01T00:00 | 13758 | 151 | -60.1 | ||||
| 2007-11-01T00:00 | 13764 | 151 | -60.2 | ||||
| 2007-11-01T00:00 | 13780 | 151 | -60.4 | 49 | 14 | ||
| 2007-11-01T00:00 | 13796 | 150 | -60.5 | ||||
| 2007-11-01T00:00 | 13816 | 150 | -60.5 | ||||
| 2007-11-01T00:00 | 13817 | 150 | -60.5 | ||||
| 2007-11-01T00:00 | 13821 | 150 | -60.6 | ||||
| 2007-11-01T00:00 | 13857 | 149 | -60.8 | ||||
| 2007-11-01T00:00 | 13874 | 149 | -60.8 | ||||
| 2007-11-01T00:00 | 13880 | 148 | -60.9 | ||||
| 2007-11-01T00:00 | 13916 | 148 | -61.2 | ||||
| 2007-11-01T00:00 | 13931 | 147 | -61.2 | ||||
| 2007-11-01T00:00 | 13941 | 147 | -61.2 | ||||
| 2007-11-01T00:00 | 13968 | 146 | -61.5 | ||||
| 2007-11-01T00:00 | 13980 | 146 | -61.6 | ||||
| 2007-11-01T00:00 | 13989 | 146 | -61.6 | ||||
| 2007-11-01T00:00 | 14016 | 145 | -61.7 | ||||
| 2007-11-01T00:00 | 14035 | 145 | -61.6 | ||||
| 2007-11-01T00:00 | 14040 | 145 | -61.6 | ||||
| 2007-11-01T00:00 | 14069 | 144 | -61.9 | ||||
| 2007-11-01T00:00 | 14075 | 144 | -61.9 | 37 | 15 | ||
| 2007-11-01T00:00 | 14090 | 144 | -61.9 | ||||
| 2007-11-01T00:00 | 14096 | 143 | -61.9 | ||||
| 2007-11-01T00:00 | 14129 | 143 | -61.6 | ||||
| 2007-11-01T00:00 | 14141 | 142 | -61.5 | ||||
| 2007-11-01T00:00 | 14145 | 142 | -61.5 | ||||
| 2007-11-01T00:00 | 14178 | 142 | -60.3 | ||||
| 2007-11-01T00:00 | 14194 | 141 | -60.3 | ||||
| 2007-11-01T00:00 | 14205 | 141 | -60.3 | ||||
| 2007-11-01T00:00 | 14233 | 140 | -60.2 | ||||
| 2007-11-01T00:00 | 14246 | 140 | -60.2 | ||||
| 2007-11-01T00:00 | 14255 | 140 | -60.2 | ||||
| 2007-11-01T00:00 | 14286 | 139 | -60.3 | ||||
| 2007-11-01T00:00 | 14304 | 139 | -60.1 | ||||
| 2007-11-01T00:00 | 14317 | 138 | -60.1 | ||||
| 2007-11-01T00:00 | 14352 | 138 | -59.9 | ||||
| 2007-11-01T00:00 | 14368 | 137 | -60.0 | ||||
| 2007-11-01T00:00 | 14379 | 137 | -60.1 | 38 | 15 | ||
| 2007-11-01T00:00 | 14408 | 136 | -60.2 | ||||
| 2007-11-01T00:00 | 14425 | 136 | -60.2 | ||||
| 2007-11-01T00:00 | 14430 | 136 | -60.2 | ||||
| 2007-11-01T00:00 | 14455 | 135 | -60.1 | ||||
| 2007-11-01T00:00 | 14472 | 135 | -60.1 | ||||
| 2007-11-01T00:00 | 14476 | 135 | -60.1 | ||||
| 2007-11-01T00:00 | 14506 | 134 | -60.3 | ||||
| 2007-11-01T00:00 | 14519 | 134 | -60.2 | ||||
| 2007-11-01T00:00 | 14524 | 134 | -60.3 | ||||
| 2007-11-01T00:00 | 14558 | 133 | -60.6 | ||||
| 2007-11-01T00:00 | 14573 | 133 | -60.7 | ||||
| 2007-11-01T00:00 | 14584 | 133 | -60.7 | ||||
| 2007-11-01T00:00 | 14611 | 132 | -60.8 | ||||
| 2007-11-01T00:00 | 14623 | 132 | -60.6 | ||||
| 2007-11-01T00:00 | 14630 | 132 | -60.6 | ||||
| 2007-11-01T00:00 | 14647 | 131 | -60.3 | 36 | 14 | ||
| 2007-11-01T00:00 | 14655 | 131 | -60.2 | ||||
| 2007-11-01T00:00 | 14669 | 131 | -59.8 | ||||
| 2007-11-01T00:00 | 14678 | 131 | -59.8 | ||||
| 2007-11-01T00:00 | 14705 | 130 | -59.4 | ||||
| 2007-11-01T00:00 | 14719 | 130 | -59.2 | ||||
| 2007-11-01T00:00 | 14728 | 130 | -59.2 | ||||
| 2007-11-01T00:00 | 14757 | 129 | -59.1 | ||||
| 2007-11-01T00:00 | 14776 | 129 | -59.1 | ||||
| 2007-11-01T00:00 | 14781 | 128 | -59.2 | ||||
| 2007-11-01T00:00 | 14808 | 128 | -59.3 | ||||
| 2007-11-01T00:00 | 14825 | 128 | -59.1 | ||||
| 2007-11-01T00:00 | 14829 | 127 | -59.0 | ||||
| 2007-11-01T00:00 | 14854 | 127 | -59.2 | ||||
| 2007-11-01T00:00 | 14872 | 127 | -59.1 | ||||
| 2007-11-01T00:00 | 14876 | 127 | -59.1 | ||||
| 2007-11-01T00:00 | 14903 | 126 | -59.3 | ||||
| 2007-11-01T00:00 | 14917 | 126 | -59.4 | 35 | 13 | ||
| 2007-11-01T00:00 | 14921 | 126 | -59.4 | ||||
| 2007-11-01T00:00 | 14926 | 126 | -59.5 | ||||
| 2007-11-01T00:00 | 14954 | 125 | -59.7 | ||||
| 2007-11-01T00:00 | 14973 | 125 | -59.7 | ||||
| 2007-11-01T00:00 | 14978 | 124 | -59.8 | ||||
| 2007-11-01T00:00 | 15012 | 124 | -59.8 | ||||
| 2007-11-01T00:00 | 15025 | 124 | -59.7 | ||||
| 2007-11-01T00:00 | 15030 | 123 | -59.6 | ||||
| 2007-11-01T00:00 | 15062 | 123 | -59.4 | ||||
| 2007-11-01T00:00 | 15075 | 123 | -59.3 | ||||
| 2007-11-01T00:00 | 15084 | 122 | -59.4 | ||||
| 2007-11-01T00:00 | 15110 | 122 | -59.4 | ||||
| 2007-11-01T00:00 | 15123 | 122 | -59.1 | ||||
| 2007-11-01T00:00 | 15132 | 121 | -59.1 | ||||
| 2007-11-01T00:00 | 15158 | 121 | -59.1 | ||||
| 2007-11-01T00:00 | 15172 | 121 | -59.1 | ||||
| 2007-11-01T00:00 | 15181 | 121 | -59.2 | ||||
| 2007-11-01T00:00 | 15190 | 120 | -59.3 | 37 | 12 | ||
| 2007-11-01T00:00 | 15210 | 120 | -59.4 | ||||
| 2007-11-01T00:00 | 15225 | 120 | -59.5 | ||||
| 2007-11-01T00:00 | 15235 | 119 | -59.6 | ||||
| 2007-11-01T00:00 | 15263 | 119 | -59.7 | ||||
| 2007-11-01T00:00 | 15277 | 119 | -59.6 | ||||
| 2007-11-01T00:00 | 15285 | 119 | -59.7 | ||||
| 2007-11-01T00:00 | 15314 | 118 | -59.8 | ||||
| 2007-11-01T00:00 | 15328 | 118 | -59.7 | ||||
| 2007-11-01T00:00 | 15338 | 118 | -59.5 | ||||
| 2007-11-01T00:00 | 15370 | 117 | -59.5 | ||||
| 2007-11-01T00:00 | 15391 | 117 | -59.6 | ||||
| 2007-11-01T00:00 | 15397 | 116 | -59.7 | ||||
| 2007-11-01T00:00 | 15426 | 116 | -59.9 | ||||
| 2007-11-01T00:00 | 15444 | 116 | -59.8 | ||||
| 2007-11-01T00:00 | 15449 | 115 | -59.8 | ||||
| 2007-11-01T00:00 | 15477 | 115 | -60.0 | ||||
| 2007-11-01T00:00 | 15481 | 115 | -60.0 | 48 | 11 | ||
| 2007-11-01T00:00 | 15496 | 115 | -60.1 | ||||
| 2007-11-01T00:00 | 15501 | 114 | -60.2 | ||||
| 2007-11-01T00:00 | 15532 | 114 | -60.5 | ||||
| 2007-11-01T00:00 | 15555 | 114 | -60.6 | ||||
| 2007-11-01T00:00 | 15560 | 113 | -60.7 | ||||
| 2007-11-01T00:00 | 15593 | 113 | -61.1 | ||||
| 2007-11-01T00:00 | 15613 | 112 | -61.2 | ||||
| 2007-11-01T00:00 | 15618 | 112 | -61.2 | ||||
| 2007-11-01T00:00 | 15655 | 112 | -61.5 | ||||
| 2007-11-01T00:00 | 15672 | 111 | -61.6 | ||||
| 2007-11-01T00:00 | 15684 | 111 | -61.7 | ||||
| 2007-11-01T00:00 | 15717 | 111 | -62.0 | ||||
| 2007-11-01T00:00 | 15732 | 110 | -61.9 | ||||
| 2007-11-01T00:00 | 15743 | 110 | -62.0 | ||||
| 2007-11-01T00:00 | 15778 | 110 | -62.1 | ||||
| 2007-11-01T00:00 | 15797 | 109 | -62.0 | ||||
| 2007-11-01T00:00 | 15810 | 109 | -62.1 | 55 | 9 | ||
| 2007-11-01T00:00 | 15844 | 108 | -62.4 | ||||
| 2007-11-01T00:00 | 15859 | 108 | -62.5 | ||||
| 2007-11-01T00:00 | 15868 | 108 | -62.6 | ||||
| 2007-11-01T00:00 | 15901 | 107 | -62.9 | ||||
| 2007-11-01T00:00 | 15925 | 107 | -62.9 | ||||
| 2007-11-01T00:00 | 15931 | 107 | -63.0 | ||||
| 2007-11-01T00:00 | 15966 | 106 | -63.4 | ||||
| 2007-11-01T00:00 | 15988 | 106 | -63.5 | ||||
| 2007-11-01T00:00 | 15993 | 106 | -63.5 | ||||
| 2007-11-01T00:00 | 16024 | 105 | -63.8 | ||||
| 2007-11-01T00:00 | 16044 | 105 | -63.9 | ||||
| 2007-11-01T00:00 | 16049 | 105 | -63.9 | ||||
| 2007-11-01T00:00 | 16085 | 104 | -63.9 | ||||
| 2007-11-01T00:00 | 16102 | 104 | -64.0 | ||||
| 2007-11-01T00:00 | 16113 | 104 | -64.1 | ||||
| 2007-11-01T00:00 | 16133 | 103 | -64.3 | 53 | 5 | ||
| 2007-11-01T00:00 | 16143 | 103 | -64.4 | ||||
| 2007-11-01T00:00 | 16156 | 103 | -64.4 | ||||
| 2007-11-01T00:00 | 16165 | 103 | -64.5 | ||||
| 2007-11-01T00:00 | 16193 | 102 | -64.5 | ||||
| 2007-11-01T00:00 | 16208 | 102 | -64.4 | ||||
| 2007-11-01T00:00 | 16218 | 102 | -64.4 | ||||
| 2007-11-01T00:00 | 16248 | 101 | -64.4 | ||||
| 2007-11-01T00:00 | 16263 | 101 | -64.3 | ||||
| 2007-11-01T00:00 | 16273 | 101 | -64.3 | ||||
| 2007-11-01T00:00 | 16303 | 101 | -64.5 | ||||
| 2007-11-01T00:00 | 16323 | 100 | -64.4 | ||||
| 2007-11-01T00:00 | 16328 | 100 | -64.4 | ||||
| 2007-11-01T00:00 | 16334 | 100 | -64.5 | ||||
| 2007-11-01T00:00 | 16357 | 100 | -64.7 | ||||
| 2007-11-01T00:00 | 16375 | 99 | -64.7 | ||||
| 2007-11-01T00:00 | 16380 | 99 | -64.3 | ||||
| 2007-11-01T00:00 | 16415 | 99 | -63.6 | ||||
| 2007-11-01T00:00 | 16425 | 99 | -63.3 | 27 | 4 | ||
| 2007-11-01T00:00 | 16431 | 98 | -63.2 | ||||
| 2007-11-01T00:00 | 16436 | 98 | -63.0 | ||||
| 2007-11-01T00:00 | 16472 | 98 | -62.1 | ||||
| 2007-11-01T00:00 | 16487 | 98 | -61.3 | ||||
| 2007-11-01T00:00 | 16497 | 97 | -61.3 | ||||
| 2007-11-01T00:00 | 16524 | 97 | -61.3 | ||||
| 2007-11-01T00:00 | 16537 | 97 | -61.0 | ||||
| 2007-11-01T00:00 | 16546 | 97 | -60.9 | ||||
| 2007-11-01T00:00 | 16572 | 96 | -61.0 | ||||
| 2007-11-01T00:00 | 16585 | 96 | -61.0 | ||||
| 2007-11-01T00:00 | 16594 | 96 | -61.2 | ||||
| 2007-11-01T00:00 | 16623 | 95 | -61.4 | ||||
| 2007-11-01T00:00 | 16638 | 95 | -61.4 | ||||
| 2007-11-01T00:00 | 16648 | 95 | -61.5 | ||||
| 2007-11-01T00:00 | 16677 | 95 | -61.6 | ||||
| 2007-11-01T00:00 | 16692 | 94 | -61.6 | ||||
| 2007-11-01T00:00 | 16701 | 94 | -61.7 | ||||
| 2007-11-01T00:00 | 16711 | 94 | -61.8 | 6 | 6 | ||
| 2007-11-01T00:00 | 16730 | 94 | -62.0 | ||||
| 2007-11-01T00:00 | 16743 | 94 | -61.9 | ||||
| 2007-11-01T00:00 | 16752 | 93 | -62.0 | ||||
| 2007-11-01T00:00 | 16782 | 93 | -62.0 | ||||
| 2007-11-01T00:00 | 16797 | 93 | -62.0 | ||||
| 2007-11-01T00:00 | 16808 | 93 | -62.0 | ||||
| 2007-11-01T00:00 | 16839 | 92 | -62.2 | ||||
| 2007-11-01T00:00 | 16854 | 92 | -62.2 | ||||
| 2007-11-01T00:00 | 16864 | 92 | -62.3 | ||||
| 2007-11-01T00:00 | 16893 | 91 | -62.6 | ||||
| 2007-11-01T00:00 | 16911 | 91 | -62.7 | ||||
| 2007-11-01T00:00 | 16915 | 91 | -62.8 | ||||
| 2007-11-01T00:00 | 16943 | 91 | -63.0 | ||||
| 2007-11-01T00:00 | 16962 | 90 | -63.1 | ||||
| 2007-11-01T00:00 | 16967 | 90 | -63.2 | ||||
| 2007-11-01T00:00 | 16997 | 90 | -63.4 | ||||
| 2007-11-01T00:00 | 17002 | 90 | -63.3 | 7 | 7 | ||
| 2007-11-01T00:00 | 17020 | 89 | -63.2 | ||||
| 2007-11-01T00:00 | 17025 | 89 | -63.1 | ||||
| 2007-11-01T00:00 | 17059 | 89 | -63.1 | ||||
| 2007-11-01T00:00 | 17082 | 89 | -63.0 | ||||
| 2007-11-01T00:00 | 17088 | 89 | -63.0 | ||||
| 2007-11-01T00:00 | 17125 | 88 | -63.0 | ||||
| 2007-11-01T00:00 | 17140 | 88 | -63.1 | ||||
| 2007-11-01T00:00 | 17145 | 88 | -63.1 | ||||
| 2007-11-01T00:00 | 17181 | 87 | -63.2 | ||||
| 2007-11-01T00:00 | 17197 | 87 | -63.1 | ||||
| 2007-11-01T00:00 | 17208 | 87 | -63.2 | ||||
| 2007-11-01T00:00 | 17240 | 86 | -63.6 | ||||
| 2007-11-01T00:00 | 17255 | 86 | -63.5 | ||||
| 2007-11-01T00:00 | 17265 | 86 | -63.5 | ||||
| 2007-11-01T00:00 | 17296 | 86 | -63.8 | ||||
| 2007-11-01T00:00 | 17311 | 85 | -63.8 | ||||
| 2007-11-01T00:00 | 17322 | 85 | -63.9 | 15 | 6 | ||
| 2007-11-01T00:00 | 17354 | 85 | -63.7 | ||||
| 2007-11-01T00:00 | 17370 | 85 | -63.7 | ||||
| 2007-11-01T00:00 | 17381 | 84 | -63.7 | ||||
| 2007-11-01T00:00 | 17411 | 84 | -63.8 | ||||
| 2007-11-01T00:00 | 17425 | 84 | -63.8 | ||||
| 2007-11-01T00:00 | 17434 | 84 | -63.8 | ||||
| 2007-11-01T00:00 | 17466 | 83 | -64.0 | ||||
| 2007-11-01T00:00 | 17483 | 83 | -64.0 | ||||
| 2007-11-01T00:00 | 17495 | 83 | -64.1 | ||||
| 2007-11-01T00:00 | 17527 | 82 | -64.1 | ||||
| 2007-11-01T00:00 | 17546 | 82 | -64.0 | ||||
| 2007-11-01T00:00 | 17550 | 82 | -64.0 | ||||
| 2007-11-01T00:00 | 17583 | 82 | -63.9 | ||||
| 2007-11-01T00:00 | 17608 | 81 | -64.0 | ||||
| 2007-11-01T00:00 | 17614 | 81 | -64.1 | ||||
| 2007-11-01T00:00 | 17642 | 81 | -64.3 | 12 | 9 | ||
| 2007-11-01T00:00 | 17647 | 81 | -64.3 | ||||
| 2007-11-01T00:00 | 17664 | 81 | -64.2 | ||||
| 2007-11-01T00:00 | 17668 | 81 | -64.2 | ||||
| 2007-11-01T00:00 | 17697 | 80 | -64.1 | ||||
| 2007-11-01T00:00 | 17720 | 80 | -63.8 | ||||
| 2007-11-01T00:00 | 17726 | 80 | -63.3 | ||||
| 2007-11-01T00:00 | 17764 | 79 | -63.2 | ||||
| 2007-11-01T00:00 | 17779 | 79 | -63.1 | ||||
| 2007-11-01T00:00 | 17784 | 79 | -63.1 | ||||
| 2007-11-01T00:00 | 17818 | 79 | -63.1 | ||||
| 2007-11-01T00:00 | 17832 | 78 | -63.0 | ||||
| 2007-11-01T00:00 | 17837 | 78 | -63.0 | ||||
| 2007-11-01T00:00 | 17870 | 78 | -63.0 | ||||
| 2007-11-01T00:00 | 17884 | 78 | -63.0 | ||||
| 2007-11-01T00:00 | 17894 | 78 | -63.1 | ||||
| 2007-11-01T00:00 | 17923 | 77 | -63.2 | ||||
| 2007-11-01T00:00 | 17939 | 77 | -63.2 | 25 | 11 | ||
| 2007-11-01T00:00 | 17950 | 77 | -63.3 | ||||
| 2007-11-01T00:00 | 17978 | 77 | -63.3 | ||||
| 2007-11-01T00:00 | 17992 | 76 | -63.2 | ||||
| 2007-11-01T00:00 | 18000 | 76 | -63.3 | ||||
| 2007-11-01T00:00 | 18028 | 76 | -63.3 | ||||
| 2007-11-01T00:00 | 18042 | 76 | -63.3 | ||||
| 2007-11-01T00:00 | 18052 | 76 | -63.3 | ||||
| 2007-11-01T00:00 | 18079 | 75 | -63.6 | ||||
| 2007-11-01T00:00 | 18092 | 75 | -63.6 | ||||
| 2007-11-01T00:00 | 18100 | 75 | -63.6 | ||||
| 2007-11-01T00:00 | 18127 | 75 | -63.7 | ||||
| 2007-11-01T00:00 | 18140 | 75 | -63.7 | ||||
| 2007-11-01T00:00 | 18150 | 74 | -63.8 | ||||
| 2007-11-01T00:00 | 18180 | 74 | -63.7 | ||||
| 2007-11-01T00:00 | 18197 | 74 | -63.5 | ||||
| 2007-11-01T00:00 | 18208 | 74 | -63.5 | ||||
| 2007-11-01T00:00 | 18223 | 74 | -63.4 | 58 | 10 | ||
| 2007-11-01T00:00 | 18238 | 73 | -63.4 | ||||
| 2007-11-01T00:00 | 18253 | 73 | -63.3 | ||||
| 2007-11-01T00:00 | 18262 | 73 | -63.4 | ||||
| 2007-11-01T00:00 | 18287 | 73 | -63.5 | ||||
| 2007-11-01T00:00 | 18297 | 73 | -63.5 | ||||
| 2007-11-01T00:00 | 18304 | 73 | -63.6 | ||||
| 2007-11-01T00:00 | 18331 | 72 | -63.8 | ||||
| 2007-11-01T00:00 | 18347 | 72 | -63.7 | ||||
| 2007-11-01T00:00 | 18358 | 72 | -63.8 | ||||
| 2007-11-01T00:00 | 18391 | 72 | -63.9 | ||||
| 2007-11-01T00:00 | 18408 | 71 | -63.9 | ||||
| 2007-11-01T00:00 | 18419 | 71 | -64.0 | ||||
| 2007-11-01T00:00 | 18450 | 71 | -64.1 | ||||
| 2007-11-01T00:00 | 18468 | 71 | -64.0 | ||||
| 2007-11-01T00:00 | 18472 | 71 | -64.0 | ||||
| 2007-11-01T00:00 | 18501 | 70 | -63.9 | ||||
| 2007-11-01T00:00 | 18511 | 70 | -64.0 | 89 | 8 | ||
| 2007-11-01T00:00 | 18521 | 70 | -64.0 | ||||
| 2007-11-01T00:00 | 18526 | 70 | -64.0 | ||||
| 2007-11-01T00:00 | 18527 | 70 | -64.0 | ||||
| 2007-11-01T00:00 | 18557 | 70 | -64.3 | ||||
| 2007-11-01T00:00 | 18578 | 69 | -64.3 | ||||
| 2007-11-01T00:00 | 18583 | 69 | -64.4 | ||||
| 2007-11-01T00:00 | 18614 | 69 | -64.6 | ||||
| 2007-11-01T00:00 | 18634 | 69 | -64.6 | ||||
| 2007-11-01T00:00 | 18639 | 69 | -64.5 | ||||
| 2007-11-01T00:00 | 18669 | 68 | -64.4 | ||||
| 2007-11-01T00:00 | 18688 | 68 | -64.4 | ||||
| 2007-11-01T00:00 | 18693 | 68 | -64.4 | ||||
| 2007-11-01T00:00 | 18722 | 68 | -64.3 | ||||
| 2007-11-01T00:00 | 18743 | 68 | -63.7 | ||||
| 2007-11-01T00:00 | 18749 | 68 | -63.3 | ||||
| 2007-11-01T00:00 | 18782 | 67 | -62.7 | ||||
| 2007-11-01T00:00 | 18805 | 67 | -62.7 | ||||
| 2007-11-01T00:00 | 18811 | 67 | -62.5 | ||||
| 2007-11-01T00:00 | 18822 | 67 | -62.5 | 106 | 3 | ||
| 2007-11-01T00:00 | 18844 | 66 | -62.4 | ||||
| 2007-11-01T00:00 | 18865 | 66 | -62.3 | ||||
| 2007-11-01T00:00 | 18870 | 66 | -62.4 | ||||
| 2007-11-01T00:00 | 18904 | 66 | -62.6 | ||||
| 2007-11-01T00:00 | 18931 | 66 | -62.7 | ||||
| 2007-11-01T00:00 | 18937 | 65 | -62.9 | ||||
| 2007-11-01T00:00 | 18977 | 65 | -63.2 | ||||
| 2007-11-01T00:00 | 19001 | 65 | -63.3 | ||||
| 2007-11-01T00:00 | 19007 | 65 | -63.4 | ||||
| 2007-11-01T00:00 | 19040 | 64 | -63.7 | ||||
| 2007-11-01T00:00 | 19056 | 64 | -63.8 | ||||
| 2007-11-01T00:00 | 19060 | 64 | -63.8 | ||||
| 2007-11-01T00:00 | 19088 | 64 | -64.1 | ||||
| 2007-11-01T00:00 | 19111 | 64 | -64.1 | ||||
| 2007-11-01T00:00 | 19116 | 64 | -64.2 | ||||
| 2007-11-01T00:00 | 19148 | 63 | -64.2 | ||||
| 2007-11-01T00:00 | 19153 | 63 | -64.2 | 285 | 0 | ||
| 2007-11-01T00:00 | 19167 | 63 | -64.3 | ||||
| 2007-11-01T00:00 | 19172 | 63 | -64.4 | ||||
| 2007-11-01T00:00 | 19203 | 63 | -64.4 | ||||
| 2007-11-01T00:00 | 19226 | 62 | -64.4 | ||||
| 2007-11-01T00:00 | 19232 | 62 | -64.5 | ||||
| 2007-11-01T00:00 | 19266 | 62 | -64.4 | ||||
| 2007-11-01T00:00 | 19286 | 62 | -64.1 | ||||
| 2007-11-01T00:00 | 19291 | 62 | -64.0 | ||||
| 2007-11-01T00:00 | 19320 | 62 | -64.1 | ||||
| 2007-11-01T00:00 | 19337 | 61 | -64.1 | ||||
| 2007-11-01T00:00 | 19342 | 61 | -64.1 | ||||
| 2007-11-01T00:00 | 19376 | 61 | -64.2 | ||||
| 2007-11-01T00:00 | 19392 | 61 | -64.1 | ||||
| 2007-11-01T00:00 | 19398 | 61 | -64.2 | ||||
| 2007-11-01T00:00 | 19434 | 60 | -64.4 | ||||
| 2007-11-01T00:00 | 19447 | 60 | -64.3 | ||||
| 2007-11-01T00:00 | 19451 | 60 | -64.3 | ||||
| 2007-11-01T00:00 | 19456 | 60 | -64.3 | 15 | 1 | ||
| 2007-11-01T00:00 | 19484 | 60 | -64.3 | ||||
| 2007-11-01T00:00 | 19498 | 60 | -64.3 | ||||
| 2007-11-01T00:00 | 19503 | 60 | -64.4 | ||||
| 2007-11-01T00:00 | 19540 | 59 | -64.1 | ||||
| 2007-11-01T00:00 | 19558 | 59 | -64.0 | ||||
| 2007-11-01T00:00 | 19564 | 59 | -64.1 | ||||
| 2007-11-01T00:00 | 19602 | 59 | -64.2 | ||||
| 2007-11-01T00:00 | 19616 | 59 | -64.2 | ||||
| 2007-11-01T00:00 | 19621 | 59 | -64.2 | ||||
| 2007-11-01T00:00 | 19655 | 58 | -64.1 | ||||
| 2007-11-01T00:00 | 19670 | 58 | -64.0 | ||||
| 2007-11-01T00:00 | 19675 | 58 | -64.0 | ||||
| 2007-11-01T00:00 | 19713 | 58 | -64.2 | ||||
| 2007-11-01T00:00 | 19733 | 57 | -64.0 | ||||
| 2007-11-01T00:00 | 19739 | 57 | -64.1 | ||||
| 2007-11-01T00:00 | 19772 | 57 | -64.0 | 30 | 3 | ||
| 2007-11-01T00:00 | 19778 | 57 | -64.0 | ||||
| 2007-11-01T00:00 | 19791 | 57 | -63.8 | ||||
| 2007-11-01T00:00 | 19795 | 57 | -63.9 | ||||
| 2007-11-01T00:00 | 19826 | 57 | -64.1 | ||||
| 2007-11-01T00:00 | 19852 | 56 | -64.0 | ||||
| 2007-11-01T00:00 | 19859 | 56 | -64.0 | ||||
| 2007-11-01T00:00 | 19897 | 56 | -64.2 | ||||
| 2007-11-01T00:00 | 19922 | 56 | -64.3 | ||||
| 2007-11-01T00:00 | 19928 | 56 | -64.3 | ||||
| 2007-11-01T00:00 | 19963 | 55 | -64.5 | ||||
| 2007-11-01T00:00 | 19984 | 55 | -64.3 | ||||
| 2007-11-01T00:00 | 19989 | 55 | -64.1 | ||||
| 2007-11-01T00:00 | 20021 | 55 | -64.2 | ||||
| 2007-11-01T00:00 | 20043 | 55 | -64.0 | ||||
| 2007-11-01T00:00 | 20049 | 55 | -63.9 | ||||
| 2007-11-01T00:00 | 20084 | 54 | -63.6 | ||||
| 2007-11-01T00:00 | 20112 | 54 | -63.4 | ||||
| 2007-11-01T00:00 | 20119 | 54 | -63.5 | 30 | 4 | ||
| 2007-11-01T00:00 | 20161 | 54 | -62.9 | ||||
| 2007-11-01T00:00 | 20188 | 53 | -62.8 | ||||
| 2007-11-01T00:00 | 20195 | 53 | -62.8 | ||||
| 2007-11-01T00:00 | 20233 | 53 | -62.7 | ||||
| 2007-11-01T00:00 | 20254 | 53 | -62.5 | ||||
| 2007-11-01T00:00 | 20259 | 53 | -62.6 | ||||
| 2007-11-01T00:00 | 20296 | 52 | -62.8 | ||||
| 2007-11-01T00:00 | 20327 | 52 | -62.8 | ||||
| 2007-11-01T00:00 | 20334 | 52 | -62.8 | ||||
| 2007-11-01T00:00 | 20378 | 52 | -62.9 | ||||
| 2007-11-01T00:00 | 20404 | 52 | -63.0 | ||||
| 2007-11-01T00:00 | 20411 | 51 | -63.1 | ||||
| 2007-11-01T00:00 | 20445 | 51 | -63.0 | ||||
| 2007-11-01T00:00 | 20459 | 51 | -62.8 | ||||
| 2007-11-01T00:00 | 20468 | 51 | -62.6 | ||||
| 2007-11-01T00:00 | 20498 | 51 | -62.5 | 15 | 3 | ||
| 2007-11-01T00:00 | 20504 | 51 | -62.5 | ||||
| 2007-11-01T00:00 | 20525 | 51 | -62.4 | ||||
| 2007-11-01T00:00 | 20540 | 50 | -62.4 | ||||
| 2007-11-01T00:00 | 20575 | 50 | -62.6 | ||||
| 2007-11-01T00:00 | 20589 | 50 | -62.5 | ||||
| 2007-11-01T00:00 | 20590 | 50 | -62.5 | ||||
| 2007-11-01T00:00 | 20598 | 50 | -62.6 | ||||
| 2007-11-01T00:00 | 20630 | 50 | -62.5 | ||||
| 2007-11-01T00:00 | 20648 | 50 | -62.5 | ||||
| 2007-11-01T00:00 | 20660 | 49 | -62.6 | ||||
| 2007-11-01T00:00 | 20692 | 49 | -62.6 | ||||
| 2007-11-01T00:00 | 20705 | 49 | -62.6 | ||||
| 2007-11-01T00:00 | 20715 | 49 | -62.7 | ||||
| 2007-11-01T00:00 | 20742 | 49 | -62.8 | ||||
| 2007-11-01T00:00 | 20755 | 49 | -62.7 | ||||
| 2007-11-01T00:00 | 20764 | 49 | -62.8 | ||||
| 2007-11-01T00:00 | 20794 | 48 | -62.6 | ||||
| 2007-11-01T00:00 | 20810 | 48 | -62.5 | ||||
| 2007-11-01T00:00 | 20816 | 48 | -62.6 | 358 | 4 | ||
| 2007-11-01T00:00 | 20853 | 48 | -62.8 | ||||
| 2007-11-01T00:00 | 20868 | 48 | -62.9 | ||||
| 2007-11-01T00:00 | 20873 | 48 | -63.0 | ||||
| 2007-11-01T00:00 | 20902 | 48 | -63.2 | ||||
| 2007-11-01T00:00 | 20920 | 47 | -63.2 | ||||
| 2007-11-01T00:00 | 20924 | 47 | -63.2 | ||||
| 2007-11-01T00:00 | 20952 | 47 | -63.5 | ||||
| 2007-11-01T00:00 | 20971 | 47 | -63.5 | ||||
| 2007-11-01T00:00 | 20975 | 47 | -63.6 | ||||
| 2007-11-01T00:00 | 21004 | 47 | -63.6 | ||||
| 2007-11-01T00:00 | 21024 | 47 | -63.5 | ||||
| 2007-11-01T00:00 | 21030 | 47 | -63.6 | ||||
| 2007-11-01T00:00 | 21064 | 46 | -63.6 | ||||
| 2007-11-01T00:00 | 21092 | 46 | -63.5 | ||||
| 2007-11-01T00:00 | 21099 | 46 | -63.6 | ||||
| 2007-11-01T00:00 | 21127 | 46 | -63.9 | 352 | 3 | ||
| 2007-11-01T00:00 | 21132 | 46 | -63.9 | ||||
| 2007-11-01T00:00 | 21144 | 46 | -63.9 | ||||
| 2007-11-01T00:00 | 21152 | 46 | -63.9 | ||||
| 2007-11-01T00:00 | 21182 | 45 | -63.8 | ||||
| 2007-11-01T00:00 | 21199 | 45 | -63.6 | ||||
| 2007-11-01T00:00 | 21211 | 45 | -63.7 | ||||
| 2007-11-01T00:00 | 21244 | 45 | -63.8 | ||||
| 2007-11-01T00:00 | 21261 | 45 | -63.8 | ||||
| 2007-11-01T00:00 | 21272 | 45 | -63.8 | ||||
| 2007-11-01T00:00 | 21289 | 45 | -64.0 | ||||
| 2007-11-01T00:00 | 21290 | 45 | -64.0 | ||||
| 2007-11-01T00:00 | 21313 | 44 | -64.0 | ||||
| 2007-11-01T00:00 | 21336 | 44 | -63.9 | ||||
| 2007-11-01T00:00 | 21351 | 44 | -64.1 | ||||
| 2007-11-01T00:00 | 21395 | 44 | -64.6 | ||||
| 2007-11-01T00:00 | 21418 | 44 | -64.6 | ||||
| 2007-11-01T00:00 | 21425 | 44 | -64.6 | 345 | 3 | ||
| 2007-11-01T00:00 | 21432 | 44 | -64.6 | ||||
| 2007-11-01T00:00 | 21477 | 43 | -64.7 | ||||
| 2007-11-01T00:00 | 21499 | 43 | -64.6 | ||||
| 2007-11-01T00:00 | 21507 | 43 | -64.6 | ||||
| 2007-11-01T00:00 | 21549 | 43 | -64.3 | ||||
| 2007-11-01T00:00 | 21573 | 43 | -64.1 | ||||
| 2007-11-01T00:00 | 21580 | 43 | -64.0 | ||||
| 2007-11-01T00:00 | 21613 | 42 | -64.2 | ||||
| 2007-11-01T00:00 | 21632 | 42 | -63.9 | ||||
| 2007-11-01T00:00 | 21636 | 42 | -63.8 | ||||
| 2007-11-01T00:00 | 21671 | 42 | -63.6 | ||||
| 2007-11-01T00:00 | 21704 | 42 | -63.5 | ||||
| 2007-11-01T00:00 | 21713 | 42 | -63.7 | ||||
| 2007-11-01T00:00 | 21750 | 41 | -63.9 | ||||
| 2007-11-01T00:00 | 21762 | 41 | -63.8 | ||||
| 2007-11-01T00:00 | 21771 | 41 | -63.9 | ||||
| 2007-11-01T00:00 | 21797 | 41 | -63.9 | 350 | 4 | ||
| 2007-11-01T00:00 | 21802 | 41 | -63.9 | ||||
| 2007-11-01T00:00 | 21822 | 41 | -63.3 | ||||
| 2007-11-01T00:00 | 21834 | 41 | -63.2 | ||||
| 2007-11-01T00:00 | 21870 | 41 | -63.1 | ||||
| 2007-11-01T00:00 | 21887 | 40 | -62.8 | ||||
| 2007-11-01T00:00 | 21898 | 40 | -62.9 | ||||
| 2007-11-01T00:00 | 21931 | 40 | -62.5 | ||||
| 2007-11-01T00:00 | 21947 | 40 | -62.4 | ||||
| 2007-11-01T00:00 | 21958 | 40 | -62.3 | ||||
| 2007-11-01T00:00 | 22000 | 40 | -62.4 | ||||
| 2007-11-01T00:00 | 22026 | 40 | -62.4 | ||||
| 2007-11-01T00:00 | 22035 | 40 | -62.5 | ||||
| 2007-11-01T00:00 | 22074 | 39 | -62.9 | ||||
| 2007-11-01T00:00 | 22084 | 39 | -62.9 | ||||
| 2007-11-01T00:00 | 22086 | 39 | -63.0 | ||||
| 2007-11-01T00:00 | 22109 | 39 | -63.1 | ||||
| 2007-11-01T00:00 | 22135 | 39 | -62.8 | ||||
| 2007-11-01T00:00 | 22142 | 39 | -62.9 | 357 | 3 | ||
| 2007-11-01T00:00 | 22174 | 39 | -63.3 | ||||
| 2007-11-01T00:00 | 22187 | 39 | -62.9 | ||||
| 2007-11-01T00:00 | 22196 | 38 | -62.9 | ||||
| 2007-11-01T00:00 | 22225 | 38 | -63.1 | ||||
| 2007-11-01T00:00 | 22241 | 38 | -63.0 | ||||
| 2007-11-01T00:00 | 22252 | 38 | -63.1 | ||||
| 2007-11-01T00:00 | 22286 | 38 | -63.0 | ||||
| 2007-11-01T00:00 | 22304 | 38 | -62.7 | ||||
| 2007-11-01T00:00 | 22310 | 38 | -62.6 | ||||
| 2007-11-01T00:00 | 22346 | 38 | -62.6 | ||||
| 2007-11-01T00:00 | 22371 | 37 | -62.4 | ||||
| 2007-11-01T00:00 | 22377 | 37 | -62.5 | ||||
| 2007-11-01T00:00 | 22412 | 37 | -62.4 | ||||
| 2007-11-01T00:00 | 22431 | 37 | -62.3 | ||||
| 2007-11-01T00:00 | 22435 | 37 | -62.3 | ||||
| 2007-11-01T00:00 | 22464 | 37 | -62.2 | 355 | 2 | ||
| 2007-11-01T00:00 | 22479 | 37 | -62.2 | ||||
| 2007-11-01T00:00 | 22490 | 37 | -62.2 | ||||
| 2007-11-01T00:00 | 22523 | 36 | -62.3 | ||||
| 2007-11-01T00:00 | 22541 | 36 | -62.2 | ||||
| 2007-11-01T00:00 | 22553 | 36 | -62.2 | ||||
| 2007-11-01T00:00 | 22586 | 36 | -62.3 | ||||
| 2007-11-01T00:00 | 22602 | 36 | -62.4 | ||||
| 2007-11-01T00:00 | 22607 | 36 | -62.5 | ||||
| 2007-11-01T00:00 | 22640 | 36 | -62.5 | ||||
| 2007-11-01T00:00 | 22666 | 36 | -62.4 | ||||
| 2007-11-01T00:00 | 22672 | 36 | -62.5 | ||||
| 2007-11-01T00:00 | 22707 | 35 | -62.7 | ||||
| 2007-11-01T00:00 | 22725 | 35 | -62.6 | ||||
| 2007-11-01T00:00 | 22730 | 35 | -62.7 | ||||
| 2007-11-01T00:00 | 22759 | 35 | -62.5 | ||||
| 2007-11-01T00:00 | 22775 | 35 | -62.5 | ||||
| 2007-11-01T00:00 | 22786 | 35 | -62.6 | ||||
| 2007-11-01T00:00 | 22791 | 35 | -62.7 | 324 | 2 | ||
| 2007-11-01T00:00 | 22819 | 35 | -62.9 | ||||
| 2007-11-01T00:00 | 22836 | 35 | -63.0 | ||||
| 2007-11-01T00:00 | 22848 | 35 | -63.1 | ||||
| 2007-11-01T00:00 | 22886 | 34 | -63.5 | ||||
| 2007-11-01T00:00 | 22907 | 34 | -63.4 | ||||
| 2007-11-01T00:00 | 22914 | 34 | -63.4 | ||||
| 2007-11-01T00:00 | 22954 | 34 | -63.4 | ||||
| 2007-11-01T00:00 | 22977 | 34 | -63.3 | ||||
| 2007-11-01T00:00 | 22983 | 34 | -63.5 | ||||
| 2007-11-01T00:00 | 23021 | 34 | -63.5 | ||||
| 2007-11-01T00:00 | 23043 | 34 | -63.2 | ||||
| 2007-11-01T00:00 | 23057 | 33 | -63.3 | ||||
| 2007-11-01T00:00 | 23095 | 33 | -63.5 | ||||
| 2007-11-01T00:00 | 23112 | 33 | -63.2 | ||||
| 2007-11-01T00:00 | 23123 | 33 | -63.2 | ||||
| 2007-11-01T00:00 | 23155 | 33 | -63.2 | ||||
| 2007-11-01T00:00 | 23160 | 33 | -63.1 | 318 | 3 | ||
| 2007-11-01T00:00 | 23169 | 33 | -63.0 | ||||
| 2007-11-01T00:00 | 23179 | 33 | -63.0 | ||||
| 2007-11-01T00:00 | 23206 | 33 | -62.8 | ||||
| 2007-11-01T00:00 | 23229 | 33 | -62.5 | ||||
| 2007-11-01T00:00 | 23235 | 33 | -62.5 | ||||
| 2007-11-01T00:00 | 23272 | 32 | -62.5 | ||||
| 2007-11-01T00:00 | 23300 | 32 | -62.4 | ||||
| 2007-11-01T00:00 | 23307 | 32 | -62.5 | ||||
| 2007-11-01T00:00 | 23349 | 32 | -62.7 | ||||
| 2007-11-01T00:00 | 23371 | 32 | -62.5 | ||||
| 2007-11-01T00:00 | 23385 | 32 | -62.5 | ||||
| 2007-11-01T00:00 | 23421 | 32 | -62.4 | ||||
| 2007-11-01T00:00 | 23436 | 31 | -62.2 | ||||
| 2007-11-01T00:00 | 23445 | 31 | -62.3 | ||||
| 2007-11-01T00:00 | 23470 | 31 | -62.5 | ||||
| 2007-11-01T00:00 | 23480 | 31 | -62.6 | ||||
| 2007-11-01T00:00 | 23484 | 31 | -62.7 | ||||
| 2007-11-01T00:00 | 23496 | 31 | -62.7 | ||||
| 2007-11-01T12:00 | 491 | 970 | 8.1 | 3.6 | 29 | 4 | 1.5 |
| 2007-11-01T12:00 | 615 | 955 | 6.2 | -0.5 | 1.1 | ||
| 2007-11-01T12:00 | 660 | 950 | 5.8 | -0.4 | 1.2 | ||
| 2007-11-01T12:00 | 684 | 947 | 5.5 | -0.5 | 34 | 5 | 1.1 |
| 2007-11-01T12:00 | 698 | 945 | 5.3 | -0.6 | 1.1 | ||
| 2007-11-01T12:00 | 733 | 941 | 5.0 | -0.6 | 58 | 6 | 1.2 |
| 2007-11-01T12:00 | 787 | 935 | 4.7 | -0.4 | 70 | 8 | 1.3 |
| 2007-11-01T12:00 | 814 | 932 | 4.6 | -0.3 | 1.3 | ||
| 2007-11-01T12:00 | 842 | 929 | 4.4 | -0.3 | 69 | 8 | 1.3 |
| 2007-11-01T12:00 | 853 | 928 | 4.3 | -0.3 | 1.3 | ||
| 2007-11-01T12:00 | 876 | 925 | 4.1 | -0.4 | 1.3 | ||
| 2007-11-01T12:00 | 893 | 923 | 4.0 | -0.5 | 66 | 9 | 1.3 |
| 2007-11-01T12:00 | 933 | 919 | 3.8 | -0.5 | 1.3 | ||
| 2007-11-01T12:00 | 946 | 917 | 3.9 | -0.6 | 64 | 10 | 1.3 |
| 2007-11-01T12:00 | 968 | 915 | 4.0 | -0.7 | 1.4 | ||
| 2007-11-01T12:00 | 997 | 911 | 4.8 | -0.5 | 63 | 11 | 1.5 |
| 2007-11-01T12:00 | 1008 | 910 | 5.2 | -0.5 | 1.5 | ||
| 2007-11-01T12:00 | 1049 | 906 | 5.9 | -1.1 | 1.8 | ||
| 2007-11-01T12:00 | 1054 | 905 | 5.9 | -1.4 | 61 | 12 | 1.8 |
| 2007-11-01T12:00 | 1090 | 901 | 5.8 | -3.0 | 2.0 | ||
| 2007-11-01T12:00 | 1100 | 900 | 6.1 | -3.4 | 2.0 | ||
| 2007-11-01T12:00 | 1104 | 900 | 6.2 | -3.6 | 59 | 14 | 2.0 |
| 2007-11-01T12:00 | 1127 | 897 | 6.8 | -4.7 | 2.2 | ||
| 2007-11-01T12:00 | 1152 | 894 | 7.0 | -6.8 | 58 | 15 | 2.4 |
| 2007-11-01T12:00 | 1162 | 893 | 7.1 | -7.7 | 2.5 | ||
| 2007-11-01T12:00 | 1197 | 889 | 7.6 | -10.1 | 58 | 16 | 2.8 |
| 2007-11-01T12:00 | 1236 | 885 | 7.6 | -11.4 | 3.1 | ||
| 2007-11-01T12:00 | 1248 | 884 | 7.8 | -11.5 | 58 | 16 | 3.1 |
| 2007-11-01T12:00 | 1276 | 881 | 8.2 | -11.6 | 3.3 | ||
| 2007-11-01T12:00 | 1302 | 878 | 8.8 | -10.9 | 58 | 17 | 3.4 |
| 2007-11-01T12:00 | 1317 | 877 | 9.1 | -10.5 | 3.4 | ||
| 2007-11-01T12:00 | 1357 | 872 | 9.1 | -10.3 | 58 | 16 | 3.5 |
| 2007-11-01T12:00 | 1363 | 872 | 9.1 | -10.2 | 3.5 | ||
| 2007-11-01T12:00 | 1397 | 868 | 9.2 | -8.5 | 3.5 | ||
| 2007-11-01T12:00 | 1407 | 867 | 9.2 | -8.0 | 59 | 16 | 3.5 |
| 2007-11-01T12:00 | 1439 | 864 | 9.2 | -6.4 | 3.6 | ||
| 2007-11-01T12:00 | 1460 | 862 | 9.3 | -6.0 | 60 | 16 | 3.5 |
| 2007-11-01T12:00 | 1481 | 859 | 9.3 | -5.5 | 3.5 | ||
| 2007-11-01T12:00 | 1517 | 856 | 9.2 | -4.9 | 62 | 16 | 3.3 |
| 2007-11-01T12:00 | 1523 | 855 | 9.2 | -4.8 | 3.3 | ||
| 2007-11-01T12:00 | 1569 | 850 | 9.3 | -4.3 | 3.3 | ||
| 2007-11-01T12:00 | 1572 | 850 | 9.2 | -4.3 | 3.3 | ||
| 2007-11-01T12:00 | 1575 | 850 | 9.2 | -4.4 | 62 | 15 | 3.3 |
| 2007-11-01T12:00 | 1617 | 845 | 8.8 | -4.7 | 3.2 | ||
| 2007-11-01T12:00 | 1639 | 843 | 8.6 | -4.8 | 63 | 15 | 3.2 |
| 2007-11-01T12:00 | 1667 | 840 | 8.3 | -5.0 | 3.1 | ||
| 2007-11-01T12:00 | 1713 | 836 | 7.9 | -5.2 | 62 | 16 | 3.1 |
| 2007-11-01T12:00 | 1728 | 834 | 7.8 | -5.3 | 3.1 | ||
| 2007-11-01T12:00 | 1766 | 830 | 7.3 | -5.3 | 3.1 | ||
| 2007-11-01T12:00 | 1771 | 830 | 7.3 | -5.2 | 62 | 16 | 3.1 |
| 2007-11-01T12:00 | 1802 | 827 | 7.2 | -4.8 | 3.1 | ||
| 2007-11-01T12:00 | 1819 | 825 | 7.2 | -4.9 | 61 | 16 | 3.1 |
| 2007-11-01T12:00 | 1849 | 822 | 7.2 | -5.0 | 3.2 | ||
| 2007-11-01T12:00 | 1882 | 819 | 6.9 | -5.3 | 61 | 16 | 3.3 |
| 2007-11-01T12:00 | 1895 | 817 | 6.8 | -5.4 | 3.3 | ||
| 2007-11-01T12:00 | 1946 | 812 | 6.3 | -5.5 | 61 | 16 | 3.3 |
| 2007-11-01T12:00 | 1990 | 808 | 6.1 | -5.5 | 3.3 | ||
| 2007-11-01T12:00 | 2001 | 807 | 6.0 | -5.5 | 61 | 16 | 3.2 |
| 2007-11-01T12:00 | 2030 | 804 | 5.9 | -5.5 | 3.2 | ||
| 2007-11-01T12:00 | 2057 | 801 | 5.7 | -5.4 | 61 | 16 | 3.2 |
| 2007-11-01T12:00 | 2070 | 800 | 5.6 | -5.4 | 3.2 | ||
| 2007-11-01T12:00 | 2074 | 800 | 5.6 | -5.4 | 3.2 | ||
| 2007-11-01T12:00 | 2116 | 796 | 5.6 | -4.5 | 60 | 16 | 3.2 |
| 2007-11-01T12:00 | 2161 | 791 | 5.5 | -3.2 | 3.3 | ||
| 2007-11-01T12:00 | 2173 | 790 | 5.4 | -3.1 | 59 | 16 | 3.3 |
| 2007-11-01T12:00 | 2203 | 787 | 5.2 | -2.7 | 3.2 | ||
| 2007-11-01T12:00 | 2237 | 784 | 5.1 | -2.6 | 58 | 16 | 3.1 |
| 2007-11-01T12:00 | 2258 | 782 | 5.0 | -2.5 | 3.1 | ||
| 2007-11-01T12:00 | 2302 | 778 | 5.5 | -2.1 | 56 | 16 | 3.1 |
| 2007-11-01T12:00 | 2349 | 773 | 5.5 | -2.3 | 3.1 | ||
| 2007-11-01T12:00 | 2358 | 772 | 5.4 | -2.4 | 54 | 16 | 3.0 |
| 2007-11-01T12:00 | 2381 | 770 | 5.0 | -2.8 | 3.0 | ||
| 2007-11-01T12:00 | 2405 | 768 | 5.0 | -2.8 | 53 | 16 | 3.0 |
| 2007-11-01T12:00 | 2420 | 766 | 5.0 | -2.9 | 3.0 | ||
| 2007-11-01T12:00 | 2466 | 762 | 5.0 | -3.0 | 52 | 16 | 2.9 |
| 2007-11-01T12:00 | 2518 | 757 | 4.8 | -3.6 | 2.9 | ||
| 2007-11-01T12:00 | 2531 | 756 | 4.7 | -3.8 | 52 | 15 | 2.9 |
| 2007-11-01T12:00 | 2562 | 753 | 4.6 | -4.2 | 2.9 | ||
| 2007-11-01T12:00 | 2592 | 750 | 4.3 | -4.6 | 53 | 15 | 2.9 |
| 2007-11-01T12:00 | 2610 | 749 | 4.2 | -4.8 | 2.9 | ||
| 2007-11-01T12:00 | 2658 | 744 | 3.8 | -5.0 | 53 | 16 | 2.8 |
| 2007-11-01T12:00 | 2706 | 740 | 3.6 | -5.0 | 2.9 | ||
| 2007-11-01T12:00 | 2716 | 739 | 3.5 | -5.0 | 54 | 16 | 2.9 |
| 2007-11-01T12:00 | 2741 | 737 | 3.4 | -5.1 | 2.9 | ||
| 2007-11-01T12:00 | 2765 | 735 | 3.3 | -5.3 | 55 | 16 | 2.9 |
| 2007-11-01T12:00 | 2780 | 733 | 3.2 | -5.4 | 2.8 | ||
| 2007-11-01T12:00 | 2819 | 730 | 3.1 | -5.7 | 55 | 16 | 2.9 |
| 2007-11-01T12:00 | 2860 | 726 | 2.8 | -5.9 | 2.9 | ||
| 2007-11-01T12:00 | 2871 | 725 | 2.7 | -6.0 | 56 | 16 | 2.9 |
| 2007-11-01T12:00 | 2902 | 722 | 2.5 | -6.2 | 2.9 | ||
| 2007-11-01T12:00 | 2919 | 721 | 2.4 | -6.3 | 57 | 16 | 2.9 |
| 2007-11-01T12:00 | 2932 | 720 | 2.4 | -6.3 | 2.9 | ||
| 2007-11-01T12:00 | 2971 | 716 | 2.2 | -6.6 | 57 | 17 | 2.9 |
| 2007-11-01T12:00 | 2976 | 716 | 2.2 | -6.7 | 2.9 | ||
| 2007-11-01T12:00 | 3019 | 712 | 2.2 | -6.9 | 2.8 | ||
| 2007-11-01T12:00 | 3028 | 711 | 2.2 | -6.9 | 57 | 17 | 2.8 |
| 2007-11-01T12:00 | 3057 | 709 | 2.3 | -7.1 | 2.8 | ||
| 2007-11-01T12:00 | 3078 | 707 | 2.2 | -7.5 | 57 | 17 | 2.8 |
| 2007-11-01T12:00 | 3093 | 705 | 2.1 | -7.7 | 2.8 | ||
| 2007-11-01T12:00 | 3128 | 702 | 1.9 | -8.2 | 57 | 17 | 2.9 |
| 2007-11-01T12:00 | 3133 | 702 | 1.8 | -8.3 | 3.0 | ||
| 2007-11-01T12:00 | 3156 | 700 | 1.7 | -8.5 | 2.9 | ||
| 2007-11-01T12:00 | 3167 | 699 | 1.6 | -8.6 | 2.9 | ||
| 2007-11-01T12:00 | 3177 | 698 | 1.6 | -8.7 | 57 | 16 | 2.9 |
| 2007-11-01T12:00 | 3205 | 696 | 1.5 | -8.9 | 2.9 | ||
| 2007-11-01T12:00 | 3226 | 694 | 1.2 | -9.2 | 57 | 16 | 2.9 |
| 2007-11-01T12:00 | 3242 | 693 | 1.0 | -9.4 | 2.8 | ||
| 2007-11-01T12:00 | 3280 | 689 | 1.0 | -9.5 | 2.8 | ||
| 2007-11-01T12:00 | 3319 | 686 | 0.6 | -9.9 | 2.7 | ||
| 2007-11-01T12:00 | 3359 | 683 | 0.4 | -10.4 | 2.7 | ||
| 2007-11-01T12:00 | 3397 | 679 | 0.5 | -10.9 | 2.8 | ||
| 2007-11-01T12:00 | 3432 | 676 | 0.5 | -11.3 | 2.7 | ||
| 2007-11-01T12:00 | 3472 | 673 | 0.3 | -11.6 | 2.7 | ||
| 2007-11-01T12:00 | 3510 | 670 | 0.1 | -12.0 | 2.7 | ||
| 2007-11-01T12:00 | 3527 | 668 | 0.0 | -12.1 | 55 | 15 | 2.6 |
| 2007-11-01T12:00 | 3549 | 667 | -0.1 | -12.2 | 2.6 | ||
| 2007-11-01T12:00 | 3589 | 663 | -0.3 | -12.6 | 2.6 | ||
| 2007-11-01T12:00 | 3627 | 660 | -0.4 | -12.8 | 2.7 | ||
| 2007-11-01T12:00 | 3673 | 656 | -0.5 | -13.0 | 2.6 | ||
| 2007-11-01T12:00 | 3709 | 653 | -0.9 | -13.5 | 2.7 | ||
| 2007-11-01T12:00 | 3751 | 650 | -1.0 | -13.8 | 2.8 | ||
| 2007-11-01T12:00 | 3794 | 646 | -1.2 | -14.8 | 2.8 | ||
| 2007-11-01T12:00 | 3840 | 643 | -1.1 | -15.5 | 2.8 | ||
| 2007-11-01T12:00 | 3850 | 642 | -1.2 | -15.6 | 52 | 15 | 2.8 |
| 2007-11-01T12:00 | 3877 | 640 | -1.5 | -16.0 | 2.7 | ||
| 2007-11-01T12:00 | 3914 | 637 | -1.8 | -16.4 | 2.8 | ||
| 2007-11-01T12:00 | 3959 | 633 | -2.0 | -17.0 | 2.8 | ||
| 2007-11-01T12:00 | 3997 | 630 | -2.1 | -17.6 | 2.7 | ||
| 2007-11-01T12:00 | 4045 | 626 | -2.7 | -18.5 | 2.7 | ||
| 2007-11-01T12:00 | 4096 | 622 | -2.8 | -20.1 | 2.6 | ||
| 2007-11-01T12:00 | 4133 | 619 | -3.0 | -21.2 | 2.6 | ||
| 2007-11-01T12:00 | 4175 | 616 | -3.5 | -21.5 | 2.6 | ||
| 2007-11-01T12:00 | 4181 | 616 | -3.5 | -21.5 | 44 | 13 | 2.6 |
| 2007-11-01T12:00 | 4223 | 612 | -3.5 | -21.6 | 2.5 | ||
| 2007-11-01T12:00 | 4266 | 609 | -3.5 | -21.7 | 2.6 | ||
| 2007-11-01T12:00 | 4317 | 605 | -4.0 | -21.0 | 2.5 | ||
| 2007-11-01T12:00 | 4369 | 601 | -4.5 | -20.1 | 2.5 | ||
| 2007-11-01T12:00 | 4384 | 600 | -4.6 | -20.1 | 2.5 | ||
| 2007-11-01T12:00 | 4416 | 598 | -4.7 | -19.9 | 2.4 | ||
| 2007-11-01T12:00 | 4465 | 594 | -5.2 | -20.1 | 2.4 | ||
| 2007-11-01T12:00 | 4511 | 590 | -5.6 | -20.4 | 2.3 | ||
| 2007-11-01T12:00 | 4571 | 586 | -6.0 | -20.6 | 48 | 14 | 2.3 |
| 2007-11-01T12:00 | 4621 | 582 | -6.4 | -21.2 | 2.4 | ||
| 2007-11-01T12:00 | 4662 | 579 | -6.7 | -21.7 | 2.3 | ||
| 2007-11-01T12:00 | 4709 | 576 | -7.2 | -22.2 | 2.3 | ||
| 2007-11-01T12:00 | 4766 | 571 | -7.8 | -22.4 | 2.3 | ||
| 2007-11-01T12:00 | 4824 | 567 | -8.2 | -23.9 | 2.3 | ||
| 2007-11-01T12:00 | 4875 | 563 | -8.6 | -24.8 | 2.3 | ||
| 2007-11-01T12:00 | 4924 | 560 | -9.0 | -24.3 | 2.3 | ||
| 2007-11-01T12:00 | 4964 | 557 | -9.3 | -23.9 | 47 | 15 | 2.3 |
| 2007-11-01T12:00 | 4977 | 556 | -9.4 | -23.7 | 2.2 | ||
| 2007-11-01T12:00 | 5029 | 552 | -9.9 | -23.5 | 2.3 | ||
| 2007-11-01T12:00 | 5083 | 548 | -10.4 | -23.8 | 2.2 | ||
| 2007-11-01T12:00 | 5138 | 545 | -10.6 | -23.9 | 2.1 | ||
| 2007-11-01T12:00 | 5186 | 541 | -11.0 | -24.5 | 2.1 | ||
| 2007-11-01T12:00 | 5227 | 538 | -11.3 | -25.2 | 2.1 | ||
| 2007-11-01T12:00 | 5271 | 535 | -11.6 | -25.2 | 2.1 | ||
| 2007-11-01T12:00 | 5320 | 532 | -12.2 | -25.2 | 2.1 | ||
| 2007-11-01T12:00 | 5360 | 529 | -12.5 | -25.4 | 48 | 15 | 2.1 |
| 2007-11-01T12:00 | 5383 | 527 | -12.7 | -25.5 | 2.0 | ||
| 2007-11-01T12:00 | 5444 | 523 | -13.3 | -26.0 | 2.1 | ||
| 2007-11-01T12:00 | 5495 | 520 | -13.6 | -26.2 | 2.1 | ||
| 2007-11-01T12:00 | 5555 | 516 | -13.9 | -26.9 | 2.2 | ||
| 2007-11-01T12:00 | 5607 | 512 | -14.1 | -27.1 | 2.2 | ||
| 2007-11-01T12:00 | 5648 | 509 | -14.7 | -27.5 | 2.2 | ||
| 2007-11-01T12:00 | 5701 | 506 | -15.1 | -27.7 | 2.1 | ||
| 2007-11-01T12:00 | 5753 | 502 | -15.5 | -28.0 | 2.1 | ||
| 2007-11-01T12:00 | 5775 | 501 | -15.7 | -28.1 | 51 | 16 | 2.1 |
| 2007-11-01T12:00 | 5788 | 500 | -15.8 | -28.2 | 2.1 | ||
| 2007-11-01T12:00 | 5803 | 499 | -16.0 | -28.3 | 2.1 | ||
| 2007-11-01T12:00 | 5858 | 495 | -16.5 | -28.6 | 2.0 | ||
| 2007-11-01T12:00 | 5919 | 491 | -17.0 | -29.1 | 2.0 | ||
| 2007-11-01T12:00 | 5975 | 488 | -17.5 | -29.6 | 2.1 | ||
| 2007-11-01T12:00 | 6031 | 484 | -17.9 | -29.9 | 2.0 | ||
| 2007-11-01T12:00 | 6093 | 480 | -18.3 | -30.0 | 2.0 | ||
| 2007-11-01T12:00 | 6150 | 476 | -18.8 | -30.4 | 2.0 | ||
| 2007-11-01T12:00 | 6211 | 472 | -19.3 | -30.6 | 2.0 | ||
| 2007-11-01T12:00 | 6226 | 472 | -19.5 | -30.7 | 49 | 16 | 2.0 |
| 2007-11-01T12:00 | 6272 | 469 | -20.0 | -31.1 | 2.0 | ||
| 2007-11-01T12:00 | 6332 | 465 | -20.4 | -31.2 | 2.0 | ||
| 2007-11-01T12:00 | 6391 | 461 | -21.0 | -31.5 | 2.0 | ||
| 2007-11-01T12:00 | 6451 | 457 | -21.3 | -31.9 | 1.9 | ||
| 2007-11-01T12:00 | 6515 | 453 | -21.8 | -32.6 | 1.9 | ||
| 2007-11-01T12:00 | 6573 | 450 | -22.1 | -33.2 | 1.8 | ||
| 2007-11-01T12:00 | 6629 | 447 | -22.3 | -33.5 | 1.9 | ||
| 2007-11-01T12:00 | 6680 | 443 | -23.1 | -34.2 | 2.0 | ||
| 2007-11-01T12:00 | 6688 | 443 | -23.2 | -34.3 | 40 | 15 | 2.0 |
| 2007-11-01T12:00 | 6744 | 440 | -23.7 | -34.7 | 2.1 | ||
| 2007-11-01T12:00 | 6801 | 436 | -24.0 | -35.0 | 2.1 | ||
| 2007-11-01T12:00 | 6851 | 433 | -24.4 | -35.4 | 2.1 | ||
| 2007-11-01T12:00 | 6906 | 430 | -24.9 | -35.8 | 2.1 | ||
| 2007-11-01T12:00 | 6955 | 427 | -25.1 | -36.1 | 2.1 | ||
| 2007-11-01T12:00 | 7005 | 424 | -25.3 | -36.4 | 2.1 | ||
| 2007-11-01T12:00 | 7048 | 422 | -25.7 | -36.8 | 2.1 | ||
| 2007-11-01T12:00 | 7096 | 419 | -26.3 | -37.5 | 34 | 15 | 2.1 |
| 2007-11-01T12:00 | 7102 | 418 | -26.4 | -37.6 | 2.1 | ||
| 2007-11-01T12:00 | 7155 | 415 | -26.5 | -37.9 | 2.1 | ||
| 2007-11-01T12:00 | 7207 | 412 | -26.8 | -38.3 | 2.0 | ||
| 2007-11-01T12:00 | 7265 | 409 | -26.9 | -38.9 | 1.9 | ||
| 2007-11-01T12:00 | 7317 | 406 | -27.3 | -39.8 | 1.9 | ||
| 2007-11-01T12:00 | 7367 | 403 | -27.7 | -40.7 | 1.9 | ||
| 2007-11-01T12:00 | 7426 | 400 | -28.3 | -41.5 | 1.8 | ||
| 2007-11-01T12:00 | 7427 | 400 | -28.3 | -41.5 | 1.8 | ||
| 2007-11-01T12:00 | 7484 | 397 | -28.5 | -41.9 | 1.8 | ||
| 2007-11-01T12:00 | 7517 | 395 | -28.9 | -42.3 | 36 | 14 | 1.7 |
| 2007-11-01T12:00 | 7537 | 394 | -29.1 | -42.5 | 1.7 | ||
| 2007-11-01T12:00 | 7584 | 391 | -29.5 | -42.8 | 1.7 | ||
| 2007-11-01T12:00 | 7637 | 388 | -30.0 | -43.3 | 1.7 | ||
| 2007-11-01T12:00 | 7681 | 386 | -30.5 | -43.8 | 1.6 | ||
| 2007-11-01T12:00 | 7735 | 383 | -30.9 | -44.1 | 1.6 | ||
| 2007-11-01T12:00 | 7784 | 380 | -31.6 | -44.6 | 1.6 | ||
| 2007-11-01T12:00 | 7838 | 378 | -32.0 | -44.8 | 1.6 | ||
| 2007-11-01T12:00 | 7890 | 375 | -32.3 | -44.9 | 1.6 | ||
| 2007-11-01T12:00 | 7910 | 374 | -32.5 | -45.0 | 42 | 14 | 1.6 |
| 2007-11-01T12:00 | 7945 | 372 | -32.8 | -45.2 | 1.6 | ||
| 2007-11-01T12:00 | 7989 | 370 | -33.1 | -45.4 | 1.6 | ||
| 2007-11-01T12:00 | 8039 | 367 | -33.4 | -45.8 | 1.6 | ||
| 2007-11-01T12:00 | 8081 | 365 | -33.9 | -46.3 | 1.6 | ||
| 2007-11-01T12:00 | 8130 | 362 | -34.1 | -46.5 | 1.5 | ||
| 2007-11-01T12:00 | 8174 | 360 | -34.5 | -46.8 | 1.5 | ||
| 2007-11-01T12:00 | 8223 | 357 | -34.8 | -47.0 | 1.5 | ||
| 2007-11-01T12:00 | 8273 | 355 | -35.3 | -47.4 | 1.5 | ||
| 2007-11-01T12:00 | 8280 | 354 | -35.3 | -47.5 | 42 | 14 | 1.5 |
| 2007-11-01T12:00 | 8319 | 352 | -35.7 | -47.8 | 1.5 | ||
| 2007-11-01T12:00 | 8364 | 350 | -36.2 | -48.2 | 1.5 | ||
| 2007-11-01T12:00 | 8411 | 348 | -36.4 | -48.5 | 1.5 | ||
| 2007-11-01T12:00 | 8460 | 345 | -36.7 | -48.8 | 1.5 | ||
| 2007-11-01T12:00 | 8512 | 343 | -37.3 | -49.4 | 1.4 | ||
| 2007-11-01T12:00 | 8564 | 340 | -37.5 | -49.6 | 1.4 | ||
| 2007-11-01T12:00 | 8616 | 338 | -37.8 | -49.9 | 1.4 | ||
| 2007-11-01T12:00 | 8659 | 336 | -38.3 | -50.3 | 38 | 15 | 1.4 |
| 2007-11-01T12:00 | 8665 | 335 | -38.4 | -50.4 | 1.4 | ||
| 2007-11-01T12:00 | 8717 | 333 | -39.0 | -50.9 | 1.4 | ||
| 2007-11-01T12:00 | 8763 | 331 | -39.4 | -51.3 | 1.4 | ||
| 2007-11-01T12:00 | 8817 | 328 | -39.8 | -51.6 | 1.4 | ||
| 2007-11-01T12:00 | 8870 | 325 | -40.4 | -52.1 | 1.4 | ||
| 2007-11-01T12:00 | 9025 | 318 | -41.9 | -53.3 | 1.4 | ||
| 2007-11-01T12:00 | 9057 | 317 | -42.2 | -53.6 | 42 | 14 | 1.4 |
| 2007-11-01T12:00 | 9076 | 316 | -42.4 | -53.7 | 1.4 | ||
| 2007-11-01T12:00 | 9135 | 313 | -42.8 | -54.0 | 1.4 | ||
| 2007-11-01T12:00 | 9194 | 310 | -43.3 | -54.5 | 1.3 | ||
| 2007-11-01T12:00 | 9243 | 308 | -43.6 | -54.8 | 1.3 | ||
| 2007-11-01T12:00 | 9295 | 306 | -44.2 | -55.3 | 1.3 | ||
| 2007-11-01T12:00 | 9348 | 303 | -44.4 | -55.4 | 1.3 | ||
| 2007-11-01T12:00 | 9408 | 300 | -45.1 | -56.1 | 1.3 | ||
| 2007-11-01T12:00 | 9417 | 300 | -45.2 | -56.2 | 1.3 | ||
| 2007-11-01T12:00 | 9467 | 298 | -45.7 | -56.5 | 1.3 | ||
| 2007-11-01T12:00 | 9486 | 297 | -45.8 | -56.7 | 37 | 14 | 1.3 |
| 2007-11-01T12:00 | 9517 | 296 | -46.1 | -56.9 | 1.2 | ||
| 2007-11-01T12:00 | 9571 | 293 | -46.5 | -57.3 | 1.2 | ||
| 2007-11-01T12:00 | 9626 | 291 | -46.9 | -57.6 | 1.2 | ||
| 2007-11-01T12:00 | 9682 | 288 | -47.3 | -57.9 | 1.3 | ||
| 2007-11-01T12:00 | 9746 | 286 | -47.7 | -58.3 | 1.2 | ||
| 2007-11-01T12:00 | 9801 | 283 | -48.3 | -58.8 | 1.2 | ||
| 2007-11-01T12:00 | 9850 | 281 | -49.0 | -59.4 | 1.2 | ||
| 2007-11-01T12:00 | 9912 | 278 | -49.2 | -59.5 | 1.2 | ||
| 2007-11-01T12:00 | 9919 | 278 | -49.2 | -59.6 | 37 | 15 | 1.2 |
| 2007-11-01T12:00 | 9967 | 276 | -49.5 | -59.8 | 1.2 | ||
| 2007-11-01T12:00 | 10028 | 274 | -50.2 | -60.4 | 1.1 | ||
| 2007-11-01T12:00 | 10081 | 271 | -50.5 | -60.6 | 1.1 | ||
| 2007-11-01T12:00 | 10189 | 267 | -51.4 | -61.4 | 1.1 | ||
| 2007-11-01T12:00 | 10246 | 264 | -51.8 | -61.8 | 1.1 | ||
| 2007-11-01T12:00 | 10301 | 262 | -52.6 | -62.5 | 1.1 | ||
| 2007-11-01T12:00 | 10349 | 260 | -52.9 | -62.8 | 50 | 16 | 1.1 |
| 2007-11-01T12:00 | 10356 | 260 | -53.0 | -62.8 | 1.1 | ||
| 2007-11-01T12:00 | 10414 | 258 | -53.1 | -62.9 | 1.1 | ||
| 2007-11-01T12:00 | 10471 | 255 | -54.0 | -63.7 | 1.1 | ||
| 2007-11-01T12:00 | 10521 | 253 | -54.1 | -63.8 | 1.1 | ||
| 2007-11-01T12:00 | 10577 | 251 | -54.4 | -64.0 | 1.1 | ||
| 2007-11-01T12:00 | 10608 | 250 | -54.8 | -64.4 | 1.1 | ||
| 2007-11-01T12:00 | 10632 | 249 | -55.2 | -64.7 | 1.1 | ||
| 2007-11-01T12:00 | 10688 | 247 | -55.6 | -65.1 | 1.0 | ||
| 2007-11-01T12:00 | 10747 | 245 | -56.0 | -65.4 | 1.0 | ||
| 2007-11-01T12:00 | 10781 | 243 | -56.4 | -65.8 | 57 | 17 | 1.0 |
| 2007-11-01T12:00 | 10801 | 243 | -56.7 | -66.0 | 1.0 | ||
| 2007-11-01T12:00 | 10859 | 240 | -56.9 | -66.2 | 1.0 | ||
| 2007-11-01T12:00 | 10920 | 238 | -57.2 | -66.5 | 1.0 | ||
| 2007-11-01T12:00 | 10973 | 236 | -57.6 | -66.8 | 1.0 | ||
| 2007-11-01T12:00 | 11027 | 234 | -58.1 | -67.3 | 1.0 | ||
| 2007-11-01T12:00 | 11083 | 232 | -58.4 | -67.5 | 1.0 | ||
| 2007-11-01T12:00 | 11145 | 230 | -58.5 | -67.6 | 1.0 | ||
| 2007-11-01T12:00 | 11197 | 228 | -58.6 | -67.7 | 1.0 | ||
| 2007-11-01T12:00 | 11213 | 227 | -58.8 | -67.8 | 48 | 18 | 1.1 |
| 2007-11-01T12:00 | 11254 | 226 | -59.2 | -68.2 | 1.1 | ||
| 2007-11-01T12:00 | 11311 | 224 | -59.8 | -68.7 | 1.1 | ||
| 2007-11-01T12:00 | 11368 | 222 | -60.1 | -69.0 | 1.1 | ||
| 2007-11-01T12:00 | 11427 | 220 | -60.1 | -69.0 | 1.1 | ||
| 2007-11-01T12:00 | 11480 | 218 | -59.8 | -68.7 | 1.1 | ||
| 2007-11-01T12:00 | 11534 | 216 | -59.2 | -68.1 | 1.2 | ||
| 2007-11-01T12:00 | 11597 | 214 | -57.3 | -66.5 | 1.4 | ||
| 2007-11-01T12:00 | 11647 | 212 | -57.3 | -66.4 | 46 | 23 | 1.5 |
| 2007-11-01T12:00 | 11686 | 211 | -56.9 | -66.1 | 1.6 | ||
| 2007-11-01T12:00 | 11719 | 210 | -57.3 | -66.5 | 1.7 | ||
| 2007-11-01T12:00 | 11752 | 208 | -57.4 | -66.6 | 1.7 | ||
| 2007-11-01T12:00 | 11787 | 207 | -56.8 | -66.1 | 1.7 | ||
| 2007-11-01T12:00 | 11823 | 206 | -57.0 | -66.3 | 1.8 | ||
| 2007-11-01T12:00 | 11870 | 205 | -56.8 | -66.1 | 1.7 | ||
| 2007-11-01T12:00 | 11934 | 203 | -57.5 | -66.7 | 1.7 | ||
| 2007-11-01T12:00 | 11978 | 201 | -57.0 | -66.3 | 48 | 21 | 1.7 |
| 2007-11-01T12:00 | 11985 | 201 | -56.9 | -66.2 | 1.7 | ||
| 2007-11-01T12:00 | 12015 | 200 | -57.0 | -66.3 | 1.7 | ||
| 2007-11-01T12:00 | 12042 | 199 | -57.1 | 1.7 | |||
| 2007-11-01T12:00 | 12099 | 197 | -57.2 | 1.7 | |||
| 2007-11-01T12:00 | 12166 | 195 | -57.9 | 1.7 | |||
| 2007-11-01T12:00 | 12223 | 194 | -58.3 | 1.8 | |||
| 2007-11-01T12:00 | 12270 | 192 | -57.8 | 1.9 | |||
| 2007-11-01T12:00 | 12328 | 190 | -57.8 | 2.1 | |||
| 2007-11-01T12:00 | 12386 | 189 | -58.0 | 2.2 | |||
| 2007-11-01T12:00 | 12418 | 188 | -57.6 | 39 | 19 | 2.2 | |
| 2007-11-01T12:00 | 12438 | 187 | -57.4 | 2.3 | |||
| 2007-11-01T12:00 | 12474 | 186 | -57.3 | 2.3 | |||
| 2007-11-01T12:00 | 12511 | 185 | -57.2 | 2.3 | |||
| 2007-11-01T12:00 | 12540 | 184 | -56.6 | 2.2 | |||
| 2007-11-01T12:00 | 12570 | 183 | -56.7 | 2.2 | |||
| 2007-11-01T12:00 | 12606 | 182 | -56.3 | 2.2 | |||
| 2007-11-01T12:00 | 12647 | 181 | -56.2 | 2.3 | |||
| 2007-11-01T12:00 | 12680 | 180 | -55.5 | 2.4 | |||
| 2007-11-01T12:00 | 12692 | 180 | -55.4 | 52 | 17 | 2.4 | |
| 2007-11-01T12:00 | 12713 | 179 | -55.3 | 2.4 | |||
| 2007-11-01T12:00 | 12746 | 178 | -55.2 | 2.4 | |||
| 2007-11-01T12:00 | 12781 | 177 | -55.2 | 2.2 | |||
| 2007-11-01T12:00 | 12815 | 176 | -55.1 | 2.2 | |||
| 2007-11-01T12:00 | 12859 | 175 | -55.3 | 2.2 | |||
| 2007-11-01T12:00 | 12909 | 174 | -55.9 | 2.3 | |||
| 2007-11-01T12:00 | 12959 | 172 | -55.9 | 2.3 | |||
| 2007-11-01T12:00 | 12990 | 171 | -56.0 | 2.2 | |||
| 2007-11-01T12:00 | 12998 | 171 | -55.9 | 66 | 15 | 2.2 | |
| 2007-11-01T12:00 | 13022 | 171 | -55.8 | 2.2 | |||
| 2007-11-01T12:00 | 13064 | 169 | -56.2 | 2.2 | |||
| 2007-11-01T12:00 | 13098 | 169 | -56.8 | 2.2 | |||
| 2007-11-01T12:00 | 13130 | 168 | -56.7 | 2.2 | |||
| 2007-11-01T12:00 | 13163 | 167 | -56.6 | 2.2 | |||
| 2007-11-01T12:00 | 13198 | 166 | -57.2 | 2.2 | |||
| 2007-11-01T12:00 | 13239 | 165 | -56.6 | 2.2 | |||
| 2007-11-01T12:00 | 13270 | 164 | -56.6 | 2.1 | |||
| 2007-11-01T12:00 | 13275 | 164 | -56.6 | 69 | 12 | 2.1 | |
| 2007-11-01T12:00 | 13309 | 163 | -56.8 | 2.1 | |||
| 2007-11-01T12:00 | 13342 | 162 | -56.5 | 2.2 | |||
| 2007-11-01T12:00 | 13376 | 161 | -57.4 | 2.1 | |||
| 2007-11-01T12:00 | 13425 | 160 | -57.7 | 2.1 | |||
| 2007-11-01T12:00 | 13492 | 158 | -58.5 | 2.1 | |||
| 2007-11-01T12:00 | 13559 | 157 | -58.5 | 2.0 | |||
| 2007-11-01T12:00 | 13594 | 156 | -58.8 | 1.9 | |||
| 2007-11-01T12:00 | 13620 | 155 | -58.9 | 61 | 9 | 1.9 | |
| 2007-11-01T12:00 | 13623 | 155 | -58.9 | 1.8 | |||
| 2007-11-01T12:00 | 13655 | 154 | -59.2 | 1.8 | |||
| 2007-11-01T12:00 | 13698 | 153 | -59.1 | 1.7 | |||
| 2007-11-01T12:00 | 13735 | 152 | -59.5 | 1.6 | |||
| 2007-11-01T12:00 | 13772 | 151 | -59.6 | 1.6 | |||
| 2007-11-01T12:00 | 13809 | 151 | -59.7 | 1.6 | |||
| 2007-11-01T12:00 | 13833 | 150 | -59.7 | 1.6 | |||
| 2007-11-01T12:00 | 13845 | 150 | -59.7 | 1.6 | |||
| 2007-11-01T12:00 | 13881 | 149 | -60.6 | 1.6 | |||
| 2007-11-01T12:00 | 13909 | 148 | -60.3 | 28 | 11 | 1.6 | |
| 2007-11-01T12:00 | 13919 | 148 | -60.2 | 1.6 | |||
| 2007-11-01T12:00 | 13957 | 147 | -60.1 | 1.6 | |||
| 2007-11-01T12:00 | 13995 | 146 | -60.1 | 1.6 | |||
| 2007-11-01T12:00 | 14045 | 145 | -60.5 | 1.5 | |||
| 2007-11-01T12:00 | 14099 | 144 | -60.9 | 1.5 | |||
| 2007-11-01T12:00 | 14154 | 142 | -61.1 | 1.4 | |||
| 2007-11-01T12:00 | 14196 | 142 | -61.2 | 1.4 | |||
| 2007-11-01T12:00 | 14249 | 140 | -61.4 | 1.4 | |||
| 2007-11-01T12:00 | 14274 | 140 | -61.8 | 22 | 16 | 1.4 | |
| 2007-11-01T12:00 | 14289 | 139 | -62.0 | 1.4 | |||
| 2007-11-01T12:00 | 14333 | 138 | -61.7 | 1.5 | |||
| 2007-11-01T12:00 | 14375 | 137 | -62.4 | 1.5 | |||
| 2007-11-01T12:00 | 14410 | 137 | -62.3 | 1.5 | |||
| 2007-11-01T12:00 | 14443 | 136 | -62.6 | 1.6 | |||
| 2007-11-01T12:00 | 14489 | 135 | -63.1 | 1.6 | |||
| 2007-11-01T12:00 | 14519 | 134 | -63.0 | 1.6 | |||
| 2007-11-01T12:00 | 14549 | 134 | -62.3 | 1.7 | |||
| 2007-11-01T12:00 | 14562 | 133 | -62.5 | 37 | 16 | 1.8 | |
| 2007-11-01T12:00 | 14576 | 133 | -62.7 | 1.8 | |||
| 2007-11-01T12:00 | 14604 | 132 | -62.7 | 1.8 | |||
| 2007-11-01T12:00 | 14638 | 132 | -62.2 | 1.8 | |||
| 2007-11-01T12:00 | 14664 | 131 | -62.4 | 1.8 | |||
| 2007-11-01T12:00 | 14688 | 131 | -63.2 | 1.8 | |||
| 2007-11-01T12:00 | 14716 | 130 | -62.5 | 1.9 | |||
| 2007-11-01T12:00 | 14743 | 130 | -62.1 | 1.9 | |||
| 2007-11-01T12:00 | 14766 | 129 | -62.1 | 1.9 | |||
| 2007-11-01T12:00 | 14775 | 129 | -62.3 | 45 | 14 | 2.0 | |
| 2007-11-01T12:00 | 14791 | 129 | -62.7 | 2.0 | |||
| 2007-11-01T12:00 | 14828 | 128 | -61.5 | 2.0 | |||
| 2007-11-01T12:00 | 14874 | 127 | -61.3 | 2.0 | |||
| 2007-11-01T12:00 | 14906 | 126 | -61.2 | 2.0 | |||
| 2007-11-01T12:00 | 14938 | 125 | -60.8 | 2.1 | |||
| 2007-11-01T12:00 | 14975 | 125 | -60.6 | 2.3 | |||
| 2007-11-01T12:00 | 15010 | 124 | -60.2 | 2.5 | |||
| 2007-11-01T12:00 | 15051 | 123 | -59.7 | 2.7 | |||
| 2007-11-01T12:00 | 15062 | 123 | -59.6 | 47 | 7 | 2.8 | |
| 2007-11-01T12:00 | 15089 | 122 | -59.5 | 2.9 | |||
| 2007-11-01T12:00 | 15146 | 121 | -59.0 | 3.1 | |||
| 2007-11-01T12:00 | 15205 | 120 | -59.2 | 3.3 | |||
| 2007-11-01T12:00 | 15277 | 119 | -59.6 | 3.6 | |||
| 2007-11-01T12:00 | 15347 | 118 | -60.3 | 3.7 | |||
| 2007-11-01T12:00 | 15414 | 116 | -61.1 | 3.7 | |||
| 2007-11-01T12:00 | 15484 | 115 | -61.5 | 3.7 | |||
| 2007-11-01T12:00 | 15546 | 114 | -62.0 | 3.7 | |||
| 2007-11-01T12:00 | 15560 | 114 | -62.0 | 28 | 4 | 3.7 | |
| 2007-11-01T12:00 | 15601 | 113 | -61.9 | 3.7 | |||
| 2007-11-01T12:00 | 15639 | 112 | -62.5 | 3.7 | |||
| 2007-11-01T12:00 | 15676 | 111 | -62.2 | 3.7 | |||
| 2007-11-01T12:00 | 15704 | 111 | -61.9 | 3.7 | |||
| 2007-11-01T12:00 | 15741 | 110 | -61.7 | 3.6 | |||
| 2007-11-01T12:00 | 15778 | 110 | -62.7 | 3.6 | |||
| 2007-11-01T12:00 | 15805 | 109 | -62.7 | 3.6 | |||
| 2007-11-01T12:00 | 15841 | 109 | -63.0 | 3.6 | |||
| 2007-11-01T12:00 | 15846 | 108 | -63.0 | 18 | 9 | 3.6 | |
| 2007-11-01T12:00 | 15874 | 108 | -63.0 | 3.5 | |||
| 2007-11-01T12:00 | 15905 | 107 | -63.1 | 3.6 | |||
| 2007-11-01T12:00 | 15935 | 107 | -62.8 | 3.7 | |||
| 2007-11-01T12:00 | 15966 | 106 | -63.1 | 3.7 | |||
| 2007-11-01T12:00 | 16002 | 106 | -63.1 | 3.7 | |||
| 2007-11-01T12:00 | 16023 | 105 | -63.1 | 3.8 | |||
| 2007-11-01T12:00 | 16055 | 105 | -62.7 | 3.8 | |||
| 2007-11-01T12:00 | 16078 | 104 | -63.6 | 4.0 | |||
| 2007-11-01T12:00 | 16082 | 104 | -63.6 | 29 | 12 | 4.0 | |
| 2007-11-01T12:00 | 16112 | 104 | -63.4 | 4.1 | |||
| 2007-11-01T12:00 | 16138 | 103 | -63.5 | 4.2 | |||
| 2007-11-01T12:00 | 16168 | 103 | -63.3 | 4.2 | |||
| 2007-11-01T12:00 | 16192 | 102 | -63.2 | 4.3 | |||
| 2007-11-01T12:00 | 16240 | 102 | -62.4 | 4.4 | |||
| 2007-11-01T12:00 | 16274 | 101 | -62.8 | 4.5 | |||
| 2007-11-01T12:00 | 16301 | 101 | -63.2 | 4.6 | |||
| 2007-11-01T12:00 | 16344 | 100 | -63.3 | 4.7 | |||
| 2007-11-01T12:00 | 16351 | 100 | -63.4 | 47 | 10 | 4.8 | |
| 2007-11-01T12:00 | 16423 | 99 | -63.3 | 4.7 | |||
| 2007-11-01T12:00 | 16473 | 98 | -63.4 | 4.7 | |||
| 2007-11-01T12:00 | 16507 | 97 | -63.3 | 4.7 | |||
| 2007-11-01T12:00 | 16545 | 97 | -63.3 | 4.7 | |||
| 2007-11-01T12:00 | 16578 | 96 | -64.3 | 4.7 | |||
| 2007-11-01T12:00 | 16610 | 96 | -63.0 | 4.5 | |||
| 2007-11-01T12:00 | 16646 | 95 | -62.1 | 4.6 | |||
| 2007-11-01T12:00 | 16677 | 95 | -62.2 | 46 | 6 | 4.7 | |
| 2007-11-01T12:00 | 16700 | 94 | -62.9 | 4.9 | |||
| 2007-11-01T12:00 | 16742 | 94 | -63.1 | 5.0 | |||
| 2007-11-01T12:00 | 16792 | 93 | -62.9 | 5.1 | |||
| 2007-11-01T12:00 | 16850 | 92 | -61.8 | 5.1 | |||
| 2007-11-01T12:00 | 16903 | 91 | -62.6 | 5.2 | |||
| 2007-11-01T12:00 | 16933 | 91 | -62.7 | 5.2 | |||
| 2007-11-01T12:00 | 16959 | 90 | -62.4 | 5.2 | |||
| 2007-11-01T12:00 | 16996 | 90 | -62.3 | 17 | 3 | 5.1 | |
| 2007-11-01T12:00 | 17023 | 90 | -62.7 | 5.2 | |||
| 2007-11-01T12:00 | 17053 | 89 | -61.9 | 5.1 | |||
| 2007-11-01T12:00 | 17082 | 89 | -61.7 | 5.1 | |||
| 2007-11-01T12:00 | 17114 | 88 | -61.9 | 5.1 | |||
| 2007-11-01T12:00 | 17151 | 88 | -61.9 | 5.1 | |||
| 2007-11-01T12:00 | 17199 | 87 | -61.5 | 5.1 | |||
| 2007-11-01T12:00 | 17250 | 86 | -62.2 | 5.4 | |||
| 2007-11-01T12:00 | 17291 | 86 | -62.2 | 351 | 1 | 5.5 | |
| 2007-11-01T12:00 | 17337 | 85 | -63.0 | 5.7 | |||
| 2007-11-01T12:00 | 17374 | 85 | -62.7 | 5.9 | |||
| 2007-11-01T12:00 | 17403 | 84 | -63.3 | 5.8 | |||
| 2007-11-01T12:00 | 17440 | 84 | -63.2 | 5.9 | |||
| 2007-11-01T12:00 | 17474 | 83 | -63.0 | 6.0 | |||
| 2007-11-01T12:00 | 17506 | 83 | -62.8 | 6.2 | |||
| 2007-11-01T12:00 | 17542 | 82 | -63.7 | 6.2 | |||
| 2007-11-01T12:00 | 17574 | 82 | -63.8 | 316 | 2 | 6.2 | |
| 2007-11-01T12:00 | 17607 | 81 | -63.5 | 6.3 | |||
| 2007-11-01T12:00 | 17637 | 81 | -63.3 | 6.4 | |||
| 2007-11-01T12:00 | 17658 | 81 | -62.9 | 6.5 | |||
| 2007-11-01T12:00 | 17695 | 80 | -62.9 | 6.7 | |||
| 2007-11-01T12:00 | 17722 | 80 | -63.8 | 6.7 | |||
| 2007-11-01T12:00 | 17759 | 79 | -63.3 | 6.9 | |||
| 2007-11-01T12:00 | 17789 | 79 | -62.7 | 6.9 | |||
| 2007-11-01T12:00 | 17822 | 79 | -63.0 | 333 | 4 | 7.2 | |
| 2007-11-01T12:00 | 17857 | 78 | -63.2 | 7.2 | |||
| 2007-11-01T12:00 | 17884 | 78 | -63.0 | 7.4 | |||
| 2007-11-01T12:00 | 17913 | 78 | -63.8 | 7.3 | |||
| 2007-11-01T12:00 | 17953 | 77 | -63.6 | 7.4 | |||
| 2007-11-01T12:00 | 17984 | 77 | -63.5 | 7.4 | |||
| 2007-11-01T12:00 | 18017 | 76 | -63.9 | 7.5 | |||
| 2007-11-01T12:00 | 18045 | 76 | -64.0 | 7.4 | |||
| 2007-11-01T12:00 | 18079 | 75 | -64.1 | 1 | 7 | 7.4 | |
| 2007-11-01T12:00 | 18110 | 75 | -64.9 | 7.5 | |||
| 2007-11-01T12:00 | 18145 | 75 | -64.8 | 7.6 | |||
| 2007-11-01T12:00 | 18169 | 74 | -64.3 | 7.7 | |||
| 2007-11-01T12:00 | 18199 | 74 | -64.9 | 7.8 | |||
| 2007-11-01T12:00 | 18227 | 74 | -64.4 | 7.9 | |||
| 2007-11-01T12:00 | 18258 | 73 | -63.6 | 8.1 | |||
| 2007-11-01T12:00 | 18286 | 73 | -63.5 | 8.3 | |||
| 2007-11-01T12:00 | 18326 | 72 | -63.3 | 26 | 9 | 8.5 | |
| 2007-11-01T12:00 | 18356 | 72 | -63.0 | 8.8 | |||
| 2007-11-01T12:00 | 18386 | 72 | -63.2 | 8.9 | |||
| 2007-11-01T12:00 | 18422 | 71 | -62.2 | 9.2 | |||
| 2007-11-01T12:00 | 18451 | 71 | -61.9 | 9.3 | |||
| 2007-11-01T12:00 | 18480 | 71 | -61.9 | 9.3 | |||
| 2007-11-01T12:00 | 18511 | 70 | -62.3 | 9.3 | |||
| 2007-11-01T12:00 | 18538 | 70 | -62.2 | 9.4 | |||
| 2007-11-01T12:00 | 18553 | 70 | -62.1 | 9.4 | |||
| 2007-11-01T12:00 | 18584 | 69 | -62.3 | 9.5 | |||
| 2007-11-01T12:00 | 18591 | 69 | -62.4 | 62 | 6 | 9.5 | |
| 2007-11-01T12:00 | 18635 | 69 | -62.6 | 9.7 | |||
| 2007-11-01T12:00 | 18679 | 68 | -62.6 | 9.6 | |||
| 2007-11-01T12:00 | 18719 | 68 | -63.2 | 9.7 | |||
| 2007-11-01T12:00 | 18756 | 68 | -63.3 | 9.9 | |||
| 2007-11-01T12:00 | 18786 | 67 | -62.1 | 10.0 | |||
| 2007-11-01T12:00 | 18822 | 67 | -63.1 | 10.1 | |||
| 2007-11-01T12:00 | 18854 | 66 | -62.2 | 10.1 | |||
| 2007-11-01T12:00 | 18893 | 66 | -63.8 | 10.3 | |||
| 2007-11-01T12:00 | 18899 | 66 | -63.8 | 95 | 3 | 10.2 | |
| 2007-11-01T12:00 | 18935 | 66 | -63.7 | 10.1 | |||
| 2007-11-01T12:00 | 18965 | 65 | -63.6 | 10.1 | |||
| 2007-11-01T12:00 | 18986 | 65 | -63.4 | 9.8 | |||
| 2007-11-01T12:00 | 19018 | 65 | -64.3 | 9.7 | |||
| 2007-11-01T12:00 | 19056 | 64 | -63.9 | 9.3 | |||
| 2007-11-01T12:00 | 19088 | 64 | -63.5 | 9.1 | |||
| 2007-11-01T12:00 | 19127 | 64 | -62.8 | 8.7 | |||
| 2007-11-01T12:00 | 19163 | 63 | -63.1 | 8.4 | |||
| 2007-11-01T12:00 | 19171 | 63 | -62.9 | 86 | 1 | 8.4 | |
| 2007-11-01T12:00 | 19196 | 63 | -62.4 | 8.4 | |||
| 2007-11-01T12:00 | 19235 | 62 | -63.0 | 8.3 | |||
| 2007-11-01T12:00 | 19259 | 62 | -62.6 | 8.4 | |||
| 2007-11-01T12:00 | 19298 | 62 | -63.0 | 8.4 | |||
| 2007-11-01T12:00 | 19329 | 62 | -62.6 | 8.5 | |||
| 2007-11-01T12:00 | 19366 | 61 | -62.4 | 8.5 | |||
| 2007-11-01T12:00 | 19399 | 61 | -63.2 | 8.4 | |||
| 2007-11-01T12:00 | 19437 | 60 | -63.7 | 8.5 | |||
| 2007-11-01T12:00 | 19448 | 60 | -63.6 | 19 | 1 | 8.5 | |
| 2007-11-01T12:00 | 19467 | 60 | -63.3 | 8.5 | |||
| 2007-11-01T12:00 | 19497 | 60 | -63.8 | 8.5 | |||
| 2007-11-01T12:00 | 19538 | 59 | -63.5 | 8.6 | |||
| 2007-11-01T12:00 | 19570 | 59 | -64.1 | 8.7 | |||
| 2007-11-01T12:00 | 19616 | 59 | -64.2 | 8.9 | |||
| 2007-11-01T12:00 | 19654 | 58 | -63.4 | 9.0 | |||
| 2007-11-01T12:00 | 19681 | 58 | -63.8 | 9.1 | |||
| 2007-11-01T12:00 | 19716 | 58 | -63.4 | 9.2 | |||
| 2007-11-01T12:00 | 19734 | 58 | -63.7 | 347 | 2 | 9.2 | |
| 2007-11-01T12:00 | 19758 | 57 | -64.0 | 9.2 | |||
| 2007-11-01T12:00 | 19794 | 57 | -64.0 | 9.2 | |||
| 2007-11-01T12:00 | 19834 | 57 | -64.2 | 9.1 | |||
| 2007-11-01T12:00 | 19879 | 56 | -63.6 | 9.2 | |||
| 2007-11-01T12:00 | 19912 | 56 | -63.9 | 9.4 | |||
| 2007-11-01T12:00 | 19949 | 56 | -64.2 | 9.7 | |||
| 2007-11-01T12:00 | 19987 | 55 | -63.7 | 9.9 | |||
| 2007-11-01T12:00 | 20023 | 55 | -64.3 | 10.1 | |||
| 2007-11-01T12:00 | 20043 | 55 | -63.8 | 346 | 3 | 10.1 | |
| 2007-11-01T12:00 | 20059 | 55 | -63.4 | 10.2 | |||
| 2007-11-01T12:00 | 20092 | 54 | -63.6 | 10.2 | |||
| 2007-11-01T12:00 | 20127 | 54 | -64.3 | 10.2 | |||
| 2007-11-01T12:00 | 20164 | 54 | -63.7 | 10.1 | |||
| 2007-11-01T12:00 | 20198 | 53 | -64.0 | 10.1 | |||
| 2007-11-01T12:00 | 20241 | 53 | -63.8 | 10.0 | |||
| 2007-11-01T12:00 | 20285 | 53 | -64.0 | 9.9 | |||
| 2007-11-01T12:00 | 20321 | 52 | -64.1 | 10.0 | |||
| 2007-11-01T12:00 | 20340 | 52 | -63.7 | 357 | 4 | 10.0 | |
| 2007-11-01T12:00 | 20348 | 52 | -63.6 | 10.0 | |||
| 2007-11-01T12:00 | 20387 | 52 | -64.6 | 10.1 | |||
| 2007-11-01T12:00 | 20425 | 51 | -64.3 | 10.1 | |||
| 2007-11-01T12:00 | 20457 | 51 | -63.6 | 10.1 | |||
| 2007-11-01T12:00 | 20498 | 51 | -64.0 | 10.1 | |||
| 2007-11-01T12:00 | 20525 | 51 | -64.2 | 10.1 | |||
| 2007-11-01T12:00 | 20557 | 50 | -64.4 | 10.0 | |||
| 2007-11-01T12:00 | 20597 | 50 | -63.9 | 10.0 | |||
| 2007-11-01T12:00 | 20602 | 50 | -63.8 | 10.0 | |||
| 2007-11-01T12:00 | 20628 | 50 | -63.5 | 20 | 4 | 10.1 | |
| 2007-11-01T12:00 | 20634 | 50 | -63.4 | 10.1 | |||
| 2007-11-01T12:00 | 20679 | 49 | -63.4 | 10.0 | |||
| 2007-11-01T12:00 | 20706 | 49 | -63.7 | 10.3 | |||
| 2007-11-01T12:00 | 20740 | 49 | -63.5 | 10.5 | |||
| 2007-11-01T12:00 | 20777 | 49 | -63.5 | 10.6 | |||
| 2007-11-01T12:00 | 20814 | 48 | -62.7 | 10.5 | |||
| 2007-11-01T12:00 | 20849 | 48 | -63.7 | 10.5 | |||
| 2007-11-01T12:00 | 20882 | 48 | -63.1 | 10.6 | |||
| 2007-11-01T12:00 | 20922 | 47 | -62.4 | 51 | 3 | 10.7 | |
| 2007-11-01T12:00 | 20957 | 47 | -62.8 | 10.8 | |||
| 2007-11-01T12:00 | 21001 | 47 | -63.4 | 10.9 | |||
| 2007-11-01T12:00 | 21034 | 47 | -63.0 | 11.0 | |||
| 2007-11-01T12:00 | 21066 | 46 | -62.9 | 11.1 | |||
| 2007-11-01T12:00 | 21112 | 46 | -63.0 | 11.2 | |||
| 2007-11-01T12:00 | 21145 | 46 | -63.1 | 11.3 | |||
| 2007-11-01T12:00 | 21174 | 46 | -63.2 | 11.2 | |||
| 2007-11-01T12:00 | 21233 | 45 | -63.2 | 11.2 | |||
| 2007-11-01T12:00 | 21238 | 45 | -63.3 | 87 | 2 | 11.2 | |
| 2007-11-01T12:00 | 21267 | 45 | -64.0 | 11.1 | |||
| 2007-11-01T12:00 | 21296 | 45 | -63.2 | 11.1 | |||
| 2007-11-01T12:00 | 21330 | 44 | -63.7 | 11.1 | |||
| 2007-11-01T12:00 | 21367 | 44 | -63.7 | 11.2 | |||
| 2007-11-01T12:00 | 21382 | 44 | -63.2 | 11.2 | |||
| 2007-11-01T12:00 | 21421 | 44 | -63.9 | 11.2 | |||
| 2007-11-01T12:00 | 21470 | 43 | -64.1 | 11.2 | |||
| 2007-11-01T12:00 | 21507 | 43 | -63.6 | 11.2 | |||
| 2007-11-01T12:00 | 21518 | 43 | -63.6 | 17 | 1 | 11.2 | |
| 2007-11-01T12:00 | 21536 | 43 | -63.6 | 11.2 | |||
| 2007-11-01T12:00 | 21578 | 43 | -64.3 | 11.2 | |||
| 2007-11-01T12:00 | 21599 | 43 | -63.8 | 11.3 | |||
| 2007-11-01T12:00 | 21641 | 42 | -63.8 | 11.4 | |||
| 2007-11-01T12:00 | 21699 | 42 | -63.9 | 11.3 | |||
| 2007-11-01T12:00 | 21725 | 42 | -64.0 | 11.0 | |||
| 2007-11-01T12:00 | 21767 | 41 | -63.9 | 11.0 | |||
| 2007-11-01T12:00 | 21797 | 41 | -63.5 | 11.3 | |||
| 2007-11-01T12:00 | 21819 | 41 | -63.0 | 351 | 4 | 11.4 | |
| 2007-11-01T12:00 | 21835 | 41 | -62.5 | 11.4 | |||
| 2007-11-01T12:00 | 21873 | 41 | -63.1 | 11.6 | |||
| 2007-11-01T12:00 | 21905 | 40 | -62.4 | 11.7 | |||
| 2007-11-01T12:00 | 21946 | 40 | -62.5 | 11.7 | |||
| 2007-11-01T12:00 | 21983 | 40 | -61.7 | 11.7 | |||
| 2007-11-01T12:00 | 22024 | 40 | -62.4 | 11.9 | |||
| 2007-11-01T12:00 | 22066 | 39 | -62.4 | 11.8 | |||
| 2007-11-01T12:00 | 22098 | 39 | -61.9 | 11.9 | |||
| 2007-11-01T12:00 | 22129 | 39 | -61.4 | 10 | 4 | 12.0 | |
| 2007-11-01T12:00 | 22139 | 39 | -61.3 | 12.0 | |||
| 2007-11-01T12:00 | 22179 | 39 | -62.4 | 12.1 | |||
| 2007-11-01T12:00 | 22216 | 38 | -62.7 | 12.2 | |||
| 2007-11-01T12:00 | 22256 | 38 | -63.0 | 12.2 | |||
| 2007-11-01T12:00 | 22292 | 38 | -62.2 | 12.2 | |||
| 2007-11-01T12:00 | 22318 | 38 | -62.2 | 12.1 | |||
| 2007-11-01T12:00 | 22368 | 38 | -62.2 | 12.1 | |||
| 2007-11-01T12:00 | 22397 | 37 | -62.7 | 12.1 | |||
| 2007-11-01T12:00 | 22438 | 37 | -62.3 | 16 | 2 | 12.2 | |
| 2007-11-01T12:00 | 22481 | 37 | -62.5 | 12.0 | |||
| 2007-11-01T12:00 | 22513 | 37 | -62.4 | 12.0 | |||
| 2007-11-01T12:00 | 22553 | 36 | -62.0 | 12.3 | |||
| 2007-11-01T12:00 | 22584 | 36 | -62.5 | 12.3 | |||
| 2007-11-01T12:00 | 22617 | 36 | -62.1 | 12.1 | |||
| 2007-11-01T12:00 | 22645 | 36 | -61.9 | 12.2 | |||
| 2007-11-01T12:00 | 22696 | 36 | -62.2 | 12.0 | |||
| 2007-11-01T12:00 | 22729 | 35 | -62.6 | 12.0 | |||
| 2007-11-01T12:00 | 22739 | 35 | -62.7 | 278 | 2 | 12.0 | |
| 2007-11-01T12:00 | 22765 | 35 | -63.0 | 12.1 | |||
| 2007-11-01T12:00 | 22800 | 35 | -63.1 | 12.0 | |||
| 2007-11-01T12:00 | 22836 | 35 | -63.0 | 11.8 | |||
| 2007-11-01T12:00 | 22879 | 35 | -63.2 | 11.7 | |||
| 2007-11-01T12:00 | 22907 | 34 | -63.3 | 11.4 | |||
| 2007-11-01T12:00 | 22947 | 34 | -63.0 | 11.1 | |||
| 2007-11-01T12:00 | 22984 | 34 | -63.3 | 11.0 | |||
| 2007-11-01T12:00 | 23016 | 34 | -63.8 | 11.0 | |||
| 2007-11-01T12:00 | 23039 | 34 | -63.2 | 278 | 3 | 11.1 | |
| 2007-11-01T12:00 | 23056 | 34 | -62.7 | 11.1 | |||
| 2007-11-01T12:00 | 23091 | 33 | -62.7 | 11.0 | |||
| 2007-11-01T12:00 | 23139 | 33 | -63.5 | 11.1 | |||
| 2007-11-01T12:00 | 23175 | 33 | -62.9 | 11.0 | |||
| 2007-11-01T12:00 | 23199 | 33 | -63.0 | 11.2 | |||
| 2007-11-01T12:00 | 23232 | 33 | -63.0 | 10.9 | |||
| 2007-11-01T12:00 | 23248 | 33 | -63.2 | 10.7 | |||
| 2007-11-01T12:00 | 23297 | 32 | -63.1 | 10.7 | |||
| 2007-11-01T12:00 | 23336 | 32 | -63.6 | 294 | 4 | 10.7 | |
| 2007-11-01T12:00 | 23342 | 32 | -63.7 | 10.7 | |||
| 2007-11-01T12:00 | 23391 | 32 | -62.8 | 10.7 | |||
| 2007-11-01T12:00 | 23415 | 32 | -63.1 | 10.5 | |||
| 2007-11-01T12:00 | 23442 | 32 | -62.4 | 10.6 | |||
| 2007-11-01T12:00 | 23491 | 31 | -63.0 | 10.6 | |||
| 2007-11-01T12:00 | 23539 | 31 | -62.5 | 10.5 | |||
| 2007-11-01T12:00 | 23563 | 31 | -63.6 | 10.4 | |||
| 2007-11-01T12:00 | 23611 | 31 | -63.1 | 10.5 | |||
| 2007-11-01T12:00 | 23645 | 30 | -63.9 | 10.5 | |||
| 2007-11-01T12:00 | 23651 | 30 | -63.8 | 300 | 4 | 10.5 | |
| 2007-11-01T12:00 | 23685 | 30 | -62.6 | 10.6 | |||
| 2007-11-01T12:00 | 23709 | 30 | -63.2 | 10.5 | |||
| 2007-11-01T12:00 | 23745 | 30 | -63.2 | 10.5 | |||
| 2007-11-01T12:00 | 23757 | 30 | -63.1 | 10.6 | |||
| 2007-11-01T12:00 | 23798 | 30 | -63.6 | 10.7 | |||
| 2007-11-01T12:00 | 23823 | 30 | -63.3 | 10.4 | |||
| 2007-11-01T12:00 | 23868 | 29 | -63.5 | 10.4 | |||
| 2007-11-01T12:00 | 23903 | 29 | -62.8 | 10.5 | |||
| 2007-11-01T12:00 | 23946 | 29 | -61.9 | 10.5 | |||
| 2007-11-01T12:00 | 23962 | 29 | -61.8 | 289 | 3 | 10.4 | |
| 2007-11-01T12:00 | 23983 | 29 | -61.6 | 10.4 | |||
| 2007-11-01T12:00 | 24016 | 29 | -61.6 | 10.4 | |||
| 2007-11-01T12:00 | 24051 | 29 | -62.1 | 10.6 | |||
| 2007-11-01T12:00 | 24074 | 28 | -62.9 | 10.5 | |||
| 2007-11-01T12:00 | 24126 | 28 | -61.9 | 10.4 | |||
| 2007-11-01T12:00 | 24168 | 28 | -61.2 | 10.4 | |||
| 2007-11-01T12:00 | 24206 | 28 | -61.2 | 10.3 | |||
| 2007-11-01T12:00 | 24231 | 28 | -61.1 | 10.5 | |||
| 2007-11-01T12:00 | 24268 | 28 | -61.6 | 263 | 4 | 10.6 | |
| 2007-11-01T12:00 | 24275 | 28 | -61.7 | 10.6 | |||
| 2007-11-01T12:00 | 24328 | 27 | -60.8 | 10.7 | |||
| 2007-11-01T12:00 | 24367 | 27 | -60.5 | 10.6 | |||
| 2007-11-01T12:00 | 24388 | 27 | -61.1 | 10.6 | |||
| 2007-11-01T12:00 | 24431 | 27 | -60.5 | 10.6 | |||
| 2007-11-01T12:00 | 24473 | 27 | -60.8 | 10.6 | |||
| 2007-11-01T12:00 | 24507 | 27 | -60.5 | 10.5 | |||
| 2007-11-01T12:00 | 24547 | 26 | -61.0 | 10.3 | |||
| 2007-11-01T12:00 | 24591 | 26 | -60.9 | 10.1 | |||
| 2007-11-01T12:00 | 24594 | 26 | -60.9 | 246 | 6 | 10.1 | |
| 2007-11-01T12:00 | 24613 | 26 | -61.0 | 10.1 | |||
| 2007-11-01T12:00 | 24636 | 26 | -60.9 | 10.2 | |||
| 2007-11-01T12:00 | 24696 | 26 | -60.6 | 10.1 | |||
| 2007-11-01T12:00 | 24729 | 26 | -60.3 | 9.9 | |||
| 2007-11-01T12:00 | 24757 | 25 | -60.3 | 9.8 | |||
| 2007-11-01T12:00 | 24800 | 25 | -60.2 | 9.7 | |||
| 2007-11-01T12:00 | 24836 | 25 | -60.2 | 9.6 | |||
| 2007-11-01T12:00 | 24883 | 25 | -60.5 | 9.7 | |||
| 2007-11-01T12:00 | 24908 | 25 | -60.6 | 251 | 8 | 9.8 | |
| 2007-11-01T12:00 | 24927 | 25 | -60.7 | 9.9 | |||
| 2007-11-01T12:00 | 24963 | 25 | -60.0 | 9.7 | |||
| 2007-11-01T12:00 | 24989 | 25 | -59.9 | 9.6 | |||
| 2007-11-01T12:00 | 25029 | 24 | -60.2 | 9.6 | |||
| 2007-11-01T12:00 | 25071 | 24 | -60.4 | 9.4 | |||
| 2007-11-01T12:00 | 25106 | 24 | -60.3 | 9.4 | |||
| 2007-11-01T12:00 | 25151 | 24 | -60.6 | 9.7 | |||
| 2007-11-01T12:00 | 25186 | 24 | -60.3 | 9.9 | |||
| 2007-11-01T12:00 | 25211 | 24 | -60.5 | 283 | 9 | 9.8 | |
| 2007-11-01T12:00 | 25258 | 24 | -60.8 | 10.0 | |||
| 2007-11-01T12:00 | 25300 | 23 | -60.5 | 10.3 | |||
| 2007-11-01T12:00 | 25349 | 23 | -61.1 | 10.1 | |||
| 2007-11-01T12:00 | 25385 | 23 | -60.5 | 10.2 | |||
| 2007-11-01T12:00 | 25426 | 23 | -60.2 | 10.2 | |||
| 2007-11-01T12:00 | 25456 | 23 | -60.4 | 10.1 | |||
| 2007-11-01T12:00 | 25496 | 23 | -60.1 | 9.9 | |||
| 2007-11-01T12:00 | 25537 | 22 | -60.7 | 9.8 | |||
| 2007-11-01T12:00 | 25550 | 22 | -60.4 | 316 | 8 | 9.8 | |
| 2007-11-01T12:00 | 25569 | 22 | -60.1 | 9.8 | |||
| 2007-11-01T12:00 | 25600 | 22 | -59.6 | 9.7 | |||
| 2007-11-01T12:00 | 25626 | 22 | -60.1 | 9.6 | |||
| 2007-11-01T12:00 | 25688 | 22 | -59.9 | 9.5 | |||
| 2007-11-01T12:00 | 25727 | 22 | -60.4 | 9.3 | |||
| 2007-11-01T12:00 | 25763 | 22 | -60.6 | 9.3 | |||
| 2007-11-01T12:00 | 25800 | 22 | -60.2 | 9.5 | |||
| 2007-11-01T12:00 | 25840 | 21 | -59.5 | 9.7 | |||
| 2007-11-01T12:00 | 25873 | 21 | -59.8 | 339 | 5 | 9.8 | |
| 2007-11-01T12:00 | 25878 | 21 | -59.9 | 9.8 | |||
| 2007-11-01T12:00 | 25915 | 21 | -60.3 | 9.9 | |||
| 2007-11-01T12:00 | 25948 | 21 | -60.1 | 9.8 | |||
| 2007-11-01T12:00 | 25989 | 21 | -59.5 | 9.8 | |||
| 2007-11-01T12:00 | 26016 | 21 | -59.6 | 10.1 | |||
| 2007-11-01T12:00 | 26062 | 21 | -59.1 | 10.0 | |||
| 2007-11-01T12:00 | 26102 | 21 | -58.7 | 10.1 | |||
| 2007-11-01T12:00 | 26135 | 20 | -58.6 | 10.2 | |||
| 2007-11-01T12:00 | 26172 | 20 | -58.6 | 10.2 | |||
| 2007-11-01T12:00 | 26181 | 20 | -58.8 | 325 | 1 | 10.2 | |
| 2007-11-01T12:00 | 26204 | 20 | -59.3 | 10.1 | |||
| 2007-11-01T12:00 | 26235 | 20 | -58.5 | 10.1 | |||
| 2007-11-01T12:00 | 26267 | 20 | -57.8 | 10.1 | |||
| 2007-11-01T12:00 | 26280 | 20 | -57.5 | 10.1 | |||
| 2007-11-01T12:00 | 26314 | 20 | -57.5 | 9.9 | |||
| 2007-11-01T12:00 | 26371 | 20 | -57.4 | 9.6 | |||
| 2007-11-01T12:00 | 26401 | 20 | -58.2 | 9.5 | |||
| 2007-11-01T12:00 | 26435 | 19 | -58.7 | 9.4 | |||
| 2007-11-01T12:00 | 26469 | 19 | -58.2 | 9.1 | |||
| 2007-11-01T12:00 | 26508 | 19 | -58.3 | 262 | 3 | 9.1 | |
| 2007-11-01T12:00 | 26514 | 19 | -58.4 | 9.1 | |||
| 2007-11-01T12:00 | 26551 | 19 | -58.6 | 9.0 | |||
| 2007-11-01T12:00 | 26597 | 19 | -57.8 | 8.9 | |||
| 2007-11-01T12:00 | 26623 | 19 | -57.9 | 8.8 | |||
| 2007-11-01T12:00 | 26654 | 19 | -58.0 | 8.7 | |||
| 2007-11-01T12:00 | 26693 | 19 | -58.5 | 8.6 | |||
| 2007-11-01T12:00 | 26737 | 19 | -58.6 | 8.5 | |||
| 2007-11-01T12:00 | 26774 | 18 | -59.3 | 8.2 |
Only the first 2000 rows were shown. To view the complete dataset, download it as tab-delimited text. You can still view the full matrix in your browser, but be aware that this may crash the browser due to the huge size.
